M I D A S
Marine Information and Data Acquisition System
Tripno 858 of the Zeeleeuw from 2005-03-08 07:18:40 to 2005-03-08 16:14:43
Back to CruiseResearch ActivitiesStationsMapUnderway DataData graphs

EquipmentUnitsComment
TimeDGPSUTC
LatitudeDGPSDM.mWGS84
LongitudeDGPSDM.mWGS84
TemperatureSBE03/SBE38deg celciusITS90
ConductivitySBE21S/mITS90
SalinitySBE21 Practical Salinity Units
ChlorophylAChelsea fluorimeterg/lCalibrated in Aceton
Missing or incorrect values are displayed as -999
Sea surface data collected by the RV Zeeleeuw from 2005-03-08 07:19:27 to 2005-03-08 16:24:33
                                                                                    Next 1000 lines
Time Latitude Longitude Temperature Conductivity Salinity ChlorophylA
2005-03-08 07:19:37 51°13.598 2°56.086 12.2451 2.380746 17.503142 -0.814958
2005-03-08 07:19:43 51°13.6 2°56.08 12.2579 2.380746 17.503142 -0.848668
2005-03-08 07:19:48 51°13.602 2°56.074 12.2567 2.380851 17.503667 -0.848668
2005-03-08 07:19:52 51°13.604 2°56.068 12.3107 2.380851 17.503346 -0.882377
2005-03-08 07:19:57 51°13.606 2°56.061 12.3268 2.380956 17.504192 -0.848668
2005-03-08 07:20:02 51°13.608 2°56.053 12.3633 2.380956 17.504192 -0.848668
2005-03-08 07:20:07 51°13.61 2°56.046 12.3429 2.380956 17.50355 -0.848668
2005-03-08 07:20:12 51°13.613 2°56.038 12.3244 2.380956 17.503229 -0.814958
2005-03-08 07:20:17 51°13.615 2°56.03 11.1378 2.381061 17.504075 -0.848668
2005-03-08 07:20:22 51°13.617 2°56.021 8.7425 2.381061 17.504075 -0.882377
2005-03-08 07:20:27 51°13.619 2°56.013 6.6564 2.272058 16.515932 -0.073352
2005-03-08 07:20:32 51°13.622 2°56.004 5.4371 2.272058 16.515932 -0.073352
2005-03-08 07:20:38 51°13.625 2°55.995 4.861 2.377695 17.360523 -0.309317
2005-03-08 07:20:42 51°13.627 2°55.986 4.5331 2.187147 15.785301 6.02805
2005-03-08 07:20:47 51°13.63 2°55.979 4.2332 2.230565 17.280269 4.544836
2005-03-08 07:20:52 51°13.634 2°55.969 4.048 2.312034 19.083176 3.23017
2005-03-08 07:20:57 51°13.638 2°55.96 3.8136 2.541465 22.476919 3.600973
2005-03-08 07:21:02 51°13.641 2°55.951 3.8261 2.541465 22.476919 3.600973
2005-03-08 07:21:07 51°13.645 2°55.942 3.6793 2.520448 23.539111 5.320153
2005-03-08 07:21:12 51°13.649 2°55.934 3.6325 2.317962 22.336231 5.353862
2005-03-08 07:21:18 51°13.654 2°55.924 3.6044 2.227264 21.833372 5.151606
2005-03-08 07:21:23 51°13.658 2°55.915 3.572 2.156444 21.441219 4.747093
2005-03-08 07:21:27 51°13.661 2°55.907 3.5579 2.114211 21.248088 4.443708
2005-03-08 07:21:32 51°13.665 2°55.898 3.5686 2.114211 21.248088 4.443708
2005-03-08 07:21:37 51°13.669 2°55.889 3.5019 2.091311 21.156789 4.34258
2005-03-08 07:21:42 51°13.673 2°55.88 3.4679 2.080071 21.146337 4.106614
2005-03-08 07:21:47 51°13.676 2°55.872 3.455 2.076711 21.173967 3.938067
2005-03-08 07:21:52 51°13.68 2°55.863 3.4579 2.08459 21.352784 3.938067
2005-03-08 07:21:58 51°13.683 2°55.854 3.3898 2.08459 21.352784 3.938067
2005-03-08 07:22:03 51°13.686 2°55.845 3.4058 2.093415 21.504591 3.735811
2005-03-08 07:22:07 51°13.688 2°55.838 3.4056 2.100874 21.610621 3.735811
2005-03-08 07:22:12 51°13.691 2°55.83 3.4009 2.110645 21.748252 3.634683
2005-03-08 07:22:17 51°13.692 2°55.822 3.3659 2.122517 21.910595 3.499845
2005-03-08 07:22:21 51°13.694 2°55.816 3.353 2.135755 22.085274 3.533554
2005-03-08 07:22:27 51°13.696 2°55.806 3.3834 2.136491 22.119577 3.533554
2005-03-08 07:22:32 51°13.698 2°55.797 3.3076 2.136491 22.119577 3.533554
2005-03-08 07:22:37 51°13.699 2°55.788 3.3292 2.132709 22.102796 3.466136
2005-03-08 07:22:42 51°13.701 2°55.779 3.3198 2.127035 22.051244 3.466136
2005-03-08 07:22:47 51°13.702 2°55.771 3.3069 2.116845 21.950281 3.499845
2005-03-08 07:22:52 51°13.703 2°55.762 3.336 2.099195 21.765364 3.567264
2005-03-08 07:22:57 51°13.704 2°55.754 3.3145 2.084488 21.608956 3.600973
2005-03-08 07:23:02 51°13.704 2°55.748 3.3288 2.084488 21.608956 3.600973
2005-03-08 07:23:07 51°13.704 2°55.743 3.2819 2.058121 21.330601 3.600973
2005-03-08 07:23:12 51°13.704 2°55.741 3.3268 2.044781 21.189621 3.702101
2005-03-08 07:23:17 51°13.704 2°55.74 3.3145 2.044466 21.193053 3.735811
2005-03-08 07:23:22 51°13.705 2°55.741 3.3111 2.047512 21.228108 3.938067
2005-03-08 07:23:27 51°13.705 2°55.744 3.3116 2.04205 21.178542 4.241452
2005-03-08 07:23:32 51°13.707 2°55.747 3.3486 2.04205 21.178542 4.241452
2005-03-08 07:23:37 51°13.707 2°55.749 3.3288 2.042996 21.192161 4.645965
2005-03-08 07:23:42 51°13.708 2°55.75 3.339 2.030286 21.057591 4.88193
2005-03-08 07:23:47 51°13.708 2°55.751 3.3033 2.01138 20.841984 5.084187
2005-03-08 07:23:51 51°13.708 2°55.75 3.2947 1.995836 20.664043 5.252734
2005-03-08 07:23:57 51°13.707 2°55.749 3.3165 1.969161 20.367471 5.4887
2005-03-08 07:24:02 51°13.706 2°55.746 3.3334 1.969161 20.367471 5.4887
2005-03-08 07:24:07 51°13.704 2°55.744 3.3046 1.929782 19.919943 5.589828
2005-03-08 07:24:11 51°13.703 2°55.742 3.2876 1.888728 19.458021 5.657247
2005-03-08 07:24:17 51°13.701 2°55.738 3.3153 1.853872 19.070342 5.825794
2005-03-08 07:24:22 51°13.699 2°55.735 3.3159 1.82112 18.713057 5.825794
2005-03-08 07:24:27 51°13.698 2°55.734 3.3515 1.795613 18.429467 5.893212
2005-03-08 07:24:33 51°13.698 2°55.734 3.3464 1.795613 18.429467 5.893212
2005-03-08 07:24:37 51°13.699 2°55.735 3.3205 1.787846 18.336153 6.061759
2005-03-08 07:24:42 51°13.701 2°55.737 3.327 1.775041 18.203333 6.095469
2005-03-08 07:24:47 51°13.705 2°55.739 3.3836 1.784907 18.319013 6.162888
2005-03-08 07:24:51 51°13.708 2°55.739 3.3249 1.823954 18.750971 6.297725
2005-03-08 07:24:57 51°13.714 2°55.739 3.3212 1.878544 19.349609 6.533691
2005-03-08 07:25:02 51°13.72 2°55.737 3.3278 1.878544 19.349609 6.533691
2005-03-08 07:25:07 51°13.725 2°55.733 3.2892 1.920857 19.81845 6.634819
2005-03-08 07:25:12 51°13.73 2°55.729 3.2968 1.940283 20.046417 6.668529
2005-03-08 07:25:17 51°13.735 2°55.725 3.3452 1.946583 20.120724 6.769657
2005-03-08 07:25:21 51°13.739 2°55.721 3.3625 1.929887 19.926615 6.803366
2005-03-08 07:25:27 51°13.744 2°55.716 3.3798 1.895552 19.548644 6.837076
2005-03-08 07:25:32 51°13.75 2°55.711 3.3857 1.895552 19.548644 6.837076
2005-03-08 07:25:37 51°13.756 2°55.705 3.3969 1.860591 19.157774 6.870785
2005-03-08 07:25:41 51°13.762 2°55.699 3.3611 1.829623 18.820655 6.870785
2005-03-08 07:25:47 51°13.77 2°55.691 3.3855 1.805585 18.555216 6.971913
2005-03-08 07:25:52 51°13.777 2°55.683 3.3558 1.792149 18.390781 7.005623
2005-03-08 07:25:56 51°13.784 2°55.676 3.3891 1.766435 18.096343 6.904494
2005-03-08 07:26:01 51°13.792 2°55.668 3.3623 1.766435 18.096343 6.904494
2005-03-08 07:26:07 51°13.803 2°55.658 3.3619 1.723512 17.604981 6.904494
2005-03-08 07:26:11 51°13.81 2°55.651 3.4173 1.683324 17.160089 7.005623
2005-03-08 07:26:17 51°13.822 2°55.641 3.3962 1.634538 16.627245 7.005623
2005-03-08 07:26:21 51°13.831 2°55.634 3.4276 1.603907 16.289097 6.837076
2005-03-08 07:26:27 51°13.845 2°55.624 3.4054 1.579363 16.014653 6.837076
2005-03-08 07:26:31 51°13.852 2°55.619 3.3164 1.579363 16.014653 6.837076
2005-03-08 07:26:37 51°13.866 2°55.609 3.3203 1.566462 15.867454 6.702238
2005-03-08 07:26:41 51°13.876 2°55.601 3.4597 1.562371 15.823795 6.5674
2005-03-08 07:26:47 51°13.889 2°55.592 3.4197 1.569923 15.905952 6.466272
2005-03-08 07:26:51 51°13.898 2°55.585 3.4147 1.583768 16.056514 6.365144
2005-03-08 07:26:57 51°13.912 2°55.574 3.335 1.583768 16.056514 6.365144
2005-03-08 07:27:01 51°13.923 2°55.567 3.4193 1.617439 16.418028 6.162888
2005-03-08 07:27:07 51°13.936 2°55.557 3.355 1.647547 16.769206 6.095469
2005-03-08 07:27:12 51°13.949 2°55.547 3.3813 1.673881 17.071484 5.960631
2005-03-08 07:27:17 51°13.961 2°55.539 3.3019 1.729284 17.674945 5.893212
2005-03-08 07:27:21 51°13.971 2°55.532 3.305 1.773152 18.14821 5.825794
2005-03-08 07:27:27 51°13.984 2°55.522 3.3125 1.773152 18.14821 5.825794
2005-03-08 07:27:32 51°13.998 2°55.513 3.2556 1.816606 18.648686 5.758375
2005-03-08 07:27:37 51°14.008 2°55.505 3.2917 1.854712 19.081855 5.758375
2005-03-08 07:27:41 51°14.019 2°55.497 3.2834 1.878019 19.343186 5.690956
2005-03-08 07:27:47 51°14.033 2°55.488 3.272 1.876969 19.339402 5.623537
2005-03-08 07:27:52 51°14.045 2°55.479 3.2758 1.872875 19.303563 5.623537
2005-03-08 07:27:57 51°14.057 2°55.47 3.2536 1.882639 19.420722 5.623537
2005-03-08 07:28:01 51°14.067 2°55.463 3.2735 1.882639 19.420722 5.623537
2005-03-08 07:28:07 51°14.081 2°55.453 3.2465 1.897338 19.597887 5.421281
2005-03-08 07:28:11 51°14.09 2°55.446 3.2518 1.907732 19.72581 5.252734
2005-03-08 07:28:17 51°14.105 2°55.435 3.2326 1.904897 19.69659 5.185315
2005-03-08 07:28:21 51°14.116 2°55.427 3.2368 1.887153 19.497298 5.016768
2005-03-08 07:28:27 51°14.13 2°55.416 3.2124 1.87214 19.328378 4.91564
2005-03-08 07:28:31 51°14.14 2°55.407 3.2323 1.87214 19.328378 4.91564
2005-03-08 07:28:37 51°14.155 2°55.395 3.2408 1.856812 19.157137 4.848221
2005-03-08 07:28:42 51°14.169 2°55.382 3.2434 1.849674 19.086437 4.612255
2005-03-08 07:28:47 51°14.18 2°55.371 3.2331 1.854923 19.153909 4.578546
2005-03-08 07:28:52 51°14.193 2°55.357 3.2648 1.869306 19.323745 4.443708
2005-03-08 07:28:57 51°14.204 2°55.344 3.2563 1.869306 19.323745 4.443708
2005-03-08 07:29:01 51°14.215 2°55.332 3.2798 1.889464 19.554652 4.34258
2005-03-08 07:29:07 51°14.228 2°55.316 3.3199 1.912563 19.819132 4.241452
2005-03-08 07:29:11 51°14.237 2°55.304 3.3229 1.930098 20.013942 4.106614
2005-03-08 07:29:17 51°14.251 2°55.285 3.3324 1.937133 20.092367 4.207742
2005-03-08 07:29:21 51°14.261 2°55.27 3.2588 1.937343 20.091404 4.072905
2005-03-08 07:29:27 51°14.273 2°55.251 3.2324 1.931148 20.020268 4.072905
2005-03-08 07:29:32 51°14.283 2°55.233 3.2643 1.931148 20.020268 4.072905
2005-03-08 07:29:37 51°14.294 2°55.215 3.3039 1.925268 19.948859 3.938067
2005-03-08 07:29:41 51°14.303 2°55.197 3.3318 1.917077 19.842105 4.005486
2005-03-08 07:29:47 51°14.314 2°55.176 3.259 1.909307 19.744649 3.904358
2005-03-08 07:29:51 51°14.322 2°55.16 3.2417 1.902378 19.669829 3.938067
2005-03-08 07:29:57 51°14.333 2°55.136 3.2563 1.897548 19.63333 3.870648
2005-03-08 07:30:02 51°14.342 2°55.116 3.3267 1.897548 19.63333 3.870648
2005-03-08 07:30:07 51°14.352 2°55.096 3.2813 1.895343 19.606304 3.904358
2005-03-08 07:30:11 51°14.359 2°55.08 3.2934 1.885684 19.489373 3.870648
2005-03-08 07:30:17 51°14.371 2°55.055 3.3496 1.874765 19.360574 3.971777
2005-03-08 07:30:22 51°14.381 2°55.035 3.3185 1.877914 19.40674 3.904358
2005-03-08 07:30:26 51°14.391 2°55.017 3.2728 1.893768 19.591806 3.870648
2005-03-08 07:30:31 51°14.402 2°54.998 3.2961 1.893768 19.591806 3.870648
2005-03-08 07:30:37 51°14.415 2°54.976 3.2693 1.924323 19.926606 3.836939
2005-03-08 07:30:42 51°14.426 2°54.959 3.2703 1.960131 20.331187 3.80323
2005-03-08 07:30:47 51°14.437 2°54.941 3.2916 1.993001 20.686735 3.702101
2005-03-08 07:30:51 51°14.448 2°54.923 3.3092 2.040685 21.213326 3.600973
2005-03-08 07:30:57 51°14.462 2°54.903 3.3331 2.079552 21.663766 3.600973
2005-03-08 07:31:01 51°14.473 2°54.886 3.3356 2.079552 21.663766 3.600973
2005-03-08 07:31:06 51°14.486 2°54.867 3.3672 2.126512 22.20788 3.533554
2005-03-08 07:31:11 51°14.497 2°54.85 3.4559 2.179257 22.818174 3.432426
2005-03-08 07:31:17 51°14.513 2°54.826 3.3548 2.240312 23.522177 3.398717
2005-03-08 07:31:21 51°14.524 2°54.808 3.3351 2.305371 24.268859 3.263879
2005-03-08 07:31:27 51°14.538 2°54.785 3.3027 2.36245 24.915435 3.162751
2005-03-08 07:31:32 51°14.55 2°54.764 3.3221 2.36245 24.915435 3.162751
2005-03-08 07:31:37 51°14.562 2°54.744 3.3131 2.406079 25.408298 3.027913
2005-03-08 07:31:41 51°14.574 2°54.725 3.2543 2.444876 25.841537 2.893076
2005-03-08 07:31:47 51°14.587 2°54.703 3.2845 2.471164 26.127064 2.791947
2005-03-08 07:31:52 51°14.6 2°54.681 3.2446 2.499976 26.465234 2.690819
2005-03-08 07:31:57 51°14.613 2°54.66 3.1807 2.520378 26.712747 2.522272
2005-03-08 07:32:01 51°14.623 2°54.642 3.1644 2.520378 26.712747 2.522272
2005-03-08 07:32:07 51°14.637 2°54.619 3.232 2.539518 26.948237 2.589691
2005-03-08 07:32:12 51°14.65 2°54.597 3.1647 2.557398 27.166449 2.488563
2005-03-08 07:32:17 51°14.662 2°54.576 3.1139 2.576119 27.40242 2.522272
2005-03-08 07:32:21 51°14.673 2°54.557 3.1248 2.593263 27.626554 2.555982
2005-03-08 07:32:27 51°14.686 2°54.533 3.1281 2.617141 27.941831 2.555982
2005-03-08 07:32:31 51°14.697 2°54.514 3.1338 2.617141 27.941831 2.555982
2005-03-08 07:32:37 51°14.712 2°54.489 3.1041 2.629974 28.116649 2.589691
2005-03-08 07:32:41 51°14.722 2°54.472 3.1169 2.635549 28.187665 2.589691
2005-03-08 07:32:47 51°14.736 2°54.448 3.1155 2.648803 28.36405 2.65711
2005-03-08 07:32:51 51°14.746 2°54.432 3.1119 2.658271 28.501681 2.724529
2005-03-08 07:32:57 51°14.76 2°54.406 3.0824 2.661322 28.539249 2.690819
2005-03-08 07:33:01 51°14.772 2°54.387 3.1446 2.661322 28.539249 2.690819
2005-03-08 07:33:07 51°14.785 2°54.363 3.0984 2.663215 28.562381 2.758238
2005-03-08 07:33:11 51°14.796 2°54.343 3.1139 2.669107 28.643034 2.65711
2005-03-08 07:33:17 51°14.81 2°54.321 3.0808 2.672789 28.694482 2.758238
2005-03-08 07:33:21 51°14.821 2°54.302 3.07 2.674577 28.719598 2.825657
2005-03-08 07:33:27 51°14.835 2°54.279 3.0702 2.677628 28.764441 2.758238
2005-03-08 07:33:31 51°14.846 2°54.26 3.0964 2.677628 28.764441 2.758238
2005-03-08 07:33:37 51°14.86 2°54.236 3.0597 2.677312 28.759911 2.859366
2005-03-08 07:33:41 51°14.87 2°54.217 3.0665 2.679942 28.796604 2.859366
2005-03-08 07:33:47 51°14.883 2°54.193 3.0681 2.680574 28.80567 2.893076
2005-03-08 07:33:51 51°14.892 2°54.174 3.0792 2.682993 28.844713 2.960494
2005-03-08 07:33:57 51°14.905 2°54.147 3.0467 2.684256 28.866075 2.994204
2005-03-08 07:34:01 51°14.915 2°54.126 3.0702 2.684256 28.866075 2.994204
2005-03-08 07:34:07 51°14.926 2°54.102 3.0709 2.684466 28.863744 3.129042
2005-03-08 07:34:10 51°14.934 2°54.085 3.0775 2.686255 28.892946 3.331298
2005-03-08 07:34:17 51°14.949 2°54.054 3.0618 2.687202 28.910592 3.499845
2005-03-08 07:34:21 51°14.957 2°54.035 3.0757 2.688043 28.922972 3.634683
2005-03-08 07:34:27 51°14.97 2°54.007 3.0821 2.688043 28.922972 3.634683
2005-03-08 07:34:31 51°14.98 2°53.986 3.0782 2.690358 28.957636 3.702101
2005-03-08 07:34:37 51°14.992 2°53.961 3.0704 2.692252 28.98249 3.938067
2005-03-08 07:34:41 51°15.002 2°53.94 3.0638 2.693409 28.992969 4.241452
2005-03-08 07:34:47 51°15.014 2°53.914 3.0802 2.694566 29.00264 4.477418
2005-03-08 07:34:51 51°15.023 2°53.896 3.0685 2.69667 29.030799 4.780802
2005-03-08 07:34:57 51°15.036 2°53.868 3.0817 2.697406 29.037907 4.983059
2005-03-08 07:35:01 51°15.045 2°53.849 3.064 2.697406 29.037907 4.983059
2005-03-08 07:35:07 51°15.058 2°53.823 3.0692 2.697512 29.034302 5.151606
2005-03-08 07:35:11 51°15.067 2°53.804 3.0876 2.699195 29.057479 5.219024
2005-03-08 07:35:17 51°15.083 2°53.774 3.0798 2.700352 29.070382 5.117896
2005-03-08 07:35:22 51°15.093 2°53.754 3.0761 2.701404 29.082847 5.016768
2005-03-08 07:35:26 51°15.104 2°53.734 3.0938 2.702772 29.097433 4.747093
2005-03-08 07:35:31 51°15.115 2°53.711 3.0841 2.702772 29.097433 4.747093
2005-03-08 07:35:36 51°15.126 2°53.689 3.0732 2.704666 29.121496 4.511127
2005-03-08 07:35:41 51°15.137 2°53.667 3.0704 2.706349 29.143069 4.241452
2005-03-08 07:35:47 51°15.149 2°53.64 3.0783 2.70698 29.148928 4.106614
2005-03-08 07:35:52 51°15.159 2°53.617 3.0504 2.708032 29.160586 3.904358
2005-03-08 07:35:57 51°15.168 2°53.591 3.0569 2.708979 29.170997 3.836939
2005-03-08 07:36:01 51°15.176 2°53.569 3.056 2.708979 29.170997 3.836939
2005-03-08 07:36:07 51°15.185 2°53.54 3.0613 2.708663 29.160759 3.76952
2005-03-08 07:36:11 51°15.191 2°53.519 3.071 2.70961 29.177666 3.80323
2005-03-08 07:36:17 51°15.199 2°53.486 3.0762 2.710136 29.189592 3.836939
2005-03-08 07:36:21 51°15.205 2°53.461 3.0952 2.710452 29.199841 3.938067
2005-03-08 07:36:26 51°15.212 2°53.432 3.0859 2.711189 29.214272 3.904358
2005-03-08 07:36:32 51°15.218 2°53.401 3.1041 2.711189 29.214272 3.904358
2005-03-08 07:36:37 51°15.224 2°53.372 3.1116 2.711925 29.224636 3.870648
2005-03-08 07:36:41 51°15.229 2°53.347 3.0928 2.713608 29.243791 3.702101
2005-03-08 07:36:47 51°15.235 2°53.315 3.0967 2.715923 29.266358 3.499845
2005-03-08 07:36:52 51°15.24 2°53.286 3.0991 2.718237 29.286473 3.23017
2005-03-08 07:36:57 51°15.245 2°53.257 3.1003 2.720762 29.311525 3.095332
2005-03-08 07:37:01 51°15.25 2°53.23 3.1 2.720762 29.311525 3.095332
2005-03-08 07:37:06 51°15.255 2°53.202 3.1113 2.722341 29.322894 2.960494
2005-03-08 07:37:12 51°15.261 2°53.169 3.1286 2.724129 29.333487 2.791947
2005-03-08 07:37:17 51°15.266 2°53.142 3.1156 2.726233 29.356801 2.690819
2005-03-08 07:37:21 51°15.272 2°53.116 3.1366 2.727917 29.379213 2.65711
2005-03-08 07:37:27 51°15.278 2°53.084 3.111 2.728758 29.38674 2.65711
2005-03-08 07:37:32 51°15.284 2°53.056 3.0949 2.728758 29.38674 2.65711
2005-03-08 07:37:37 51°15.289 2°53.027 3.0988 2.729705 29.396332 2.6234
2005-03-08 07:37:42 51°15.294 2°52.995 3.0955 2.730336 29.396454 2.690819
2005-03-08 07:37:47 51°15.297 2°52.968 3.086 2.730862 29.394513 2.825657
2005-03-08 07:37:52 51°15.301 2°52.936 3.0876 2.732125 29.408658 2.65711
2005-03-08 07:37:57 51°15.303 2°52.909 3.0845 2.732651 29.41653 2.690819
2005-03-08 07:38:01 51°15.305 2°52.882 3.0858 2.732651 29.41653 2.690819
2005-03-08 07:38:07 51°15.308 2°52.849 3.0703 2.732546 29.426742 2.690819
2005-03-08 07:38:12 51°15.31 2°52.816 3.0623 2.731494 29.420816 2.724529
2005-03-08 07:38:17 51°15.312 2°52.789 3.0862 2.730021 29.408258 2.724529
2005-03-08 07:38:21 51°15.314 2°52.762 3.0742 2.728127 29.389888 2.724529
2005-03-08 07:38:27 51°15.317 2°52.729 3.068 2.727075 29.379045 2.589691
2005-03-08 07:38:31 51°15.319 2°52.702 3.065 2.727075 29.379045 2.589691
2005-03-08 07:38:37 51°15.321 2°52.67 3.0825 2.726339 29.374399 2.65711
2005-03-08 07:38:41 51°15.323 2°52.643 3.0688 2.725918 29.375133 2.65711
2005-03-08 07:38:47 51°15.326 2°52.61 3.0724 2.725181 29.370485 2.6234
2005-03-08 07:38:52 51°15.328 2°52.581 3.0575 2.724655 29.363425 2.589691
2005-03-08 07:38:57 51°15.331 2°52.547 3.07 2.723603 29.350942 2.522272
2005-03-08 07:39:01 51°15.333 2°52.523 3.0646 2.723603 29.350942 2.522272
2005-03-08 07:39:07 51°15.335 2°52.491 3.054 2.723077 29.345518 2.589691
2005-03-08 07:39:11 51°15.337 2°52.463 3.0524 2.72213 29.331832 2.589691
2005-03-08 07:39:17 51°15.339 2°52.431 3.0652 2.721709 29.328474 2.555982
2005-03-08 07:39:21 51°15.341 2°52.404 3.0593 2.721499 29.334149 2.690819
2005-03-08 07:39:27 51°15.343 2°52.37 3.0497 2.721499 29.334149 2.690819
2005-03-08 07:39:31 51°15.345 2°52.344 3.0717 2.720657 29.322527 2.589691
2005-03-08 07:39:37 51°15.348 2°52.308 3.076 2.720447 29.318397 2.589691
2005-03-08 07:39:42 51°15.35 2°52.278 3.0631 2.720657 29.324978 2.65711
2005-03-08 07:39:47 51°15.351 2°52.252 3.0523 2.720763 29.330313 2.555982
2005-03-08 07:39:51 51°15.353 2°52.228 3.0585 2.720131 29.323639 2.724529
2005-03-08 07:39:57 51°15.356 2°52.192 3.0462 2.720131 29.323639 2.724529
2005-03-08 07:40:01 51°15.358 2°52.165 3.0462 2.719816 29.323162 2.690819
2005-03-08 07:40:07 51°15.36 2°52.133 3.0527 2.7195 29.318598 2.6234
2005-03-08 07:40:11 51°15.362 2°52.109 3.054 2.719079 29.310336 2.690819
2005-03-08 07:40:17 51°15.364 2°52.07 3.0643 2.718974 29.310721 2.724529
2005-03-08 07:40:22 51°15.366 2°52.044 3.0591 2.718659 29.311877 2.690819
2005-03-08 07:40:27 51°15.368 2°52.014 3.0504 2.718238 29.310967 2.724529
2005-03-08 07:40:32 51°15.371 2°51.984 3.0356 2.718238 29.310967 2.724529
2005-03-08 07:40:37 51°15.373 2°51.952 3.0421 2.718027 29.310921 2.791947
2005-03-08 07:40:42 51°15.375 2°51.925 3.0435 2.717817 29.308423 2.758238
2005-03-08 07:40:47 51°15.378 2°51.896 3.0303 2.717291 29.29891 2.690819
2005-03-08 07:40:51 51°15.379 2°51.869 3.0525 2.717186 29.293578 2.65711
2005-03-08 07:40:57 51°15.381 2°51.837 3.0457 2.716765 29.2894 2.724529
2005-03-08 07:41:01 51°15.382 2°51.813 3.0263 2.716765 29.2894 2.724529
2005-03-08 07:41:07 51°15.382 2°51.778 3.0301 2.71666 29.295501 2.724529
2005-03-08 07:41:12 51°15.381 2°51.749 3.0171 2.716239 29.292955 2.758238
2005-03-08 07:41:17 51°15.381 2°51.716 3.0328 2.715818 29.290409 2.825657
2005-03-08 07:41:21 51°15.38 2°51.692 3.0335 2.715502 29.289929 2.6234
2005-03-08 07:41:27 51°15.378 2°51.66 3.0371 2.715502 29.289929 2.6234
2005-03-08 07:41:32 51°15.375 2°51.626 3.023 2.714976 29.28205 2.724529
2005-03-08 07:41:37 51°15.374 2°51.597 3.0286 2.714766 29.286086 2.65711
2005-03-08 07:41:42 51°15.371 2°51.57 3.024 2.714661 29.288105 2.724529
2005-03-08 07:41:47 51°15.369 2°51.54 3.0202 2.71445 29.291326 2.690819
2005-03-08 07:41:51 51°15.367 2°51.516 3.0209 2.713819 29.278925 2.724529
2005-03-08 07:41:57 51°15.363 2°51.477 3.014 2.713503 29.272727 2.690819
2005-03-08 07:42:01 51°15.362 2°51.453 3.024 2.713503 29.272727 2.690819
2005-03-08 07:42:07 51°15.358 2°51.42 3.0331 2.713609 29.275609 2.758238
2005-03-08 07:42:11 51°15.357 2°51.396 3.0157 2.713609 29.27806 2.690819
2005-03-08 07:42:17 51°15.354 2°51.358 3.0466 2.713504 29.280078 2.690819
2005-03-08 07:42:22 51°15.351 2°51.331 3.0424 2.713188 29.27878 2.724529
2005-03-08 07:42:27 51°15.35 2°51.302 3.044 2.713293 29.283299 2.724529
2005-03-08 07:42:32 51°15.347 2°51.269 3.0163 2.713293 29.283299 2.724529
2005-03-08 07:42:37 51°15.344 2°51.242 3.0236 2.713398 29.283732 2.791947
2005-03-08 07:42:42 51°15.342 2°51.21 3.0201 2.713293 29.276762 2.791947
2005-03-08 07:42:47 51°15.339 2°51.183 3.0077 2.713398 29.279646 2.791947
2005-03-08 07:42:52 51°15.337 2°51.152 3.0106 2.712977 29.268113 2.825657
2005-03-08 07:42:57 51°15.334 2°51.124 3.0181 2.712662 29.261099 2.758238
2005-03-08 07:43:01 51°15.332 2°51.096 3.0228 2.712662 29.261099 2.758238
2005-03-08 07:43:07 51°15.328 2°51.063 3.0068 2.712978 29.273013 2.859366
2005-03-08 07:43:12 51°15.326 2°51.031 3.0161 2.712767 29.277049 2.825657
2005-03-08 07:43:17 51°15.322 2°51.004 3.0164 2.712662 29.280703 2.859366
2005-03-08 07:43:21 51°15.318 2°50.978 3.0188 2.712136 29.27527 2.926785
2005-03-08 07:43:27 51°15.314 2°50.945 3.0184 2.712031 29.271568 2.758238
2005-03-08 07:43:31 51°15.31 2°50.922 3.0402 2.712031 29.271568 2.758238
2005-03-08 07:43:37 51°15.306 2°50.887 3.0291 2.712031 29.271568 2.724529
2005-03-08 07:43:41 51°15.301 2°50.861 3.0448 2.712767 29.283588 2.724529
2005-03-08 07:43:47 51°15.297 2°50.828 3.0463 2.713188 29.289407 2.859366
2005-03-08 07:43:51 51°15.293 2°50.802 3.034 2.713714 29.292387 2.791947
2005-03-08 07:43:57 51°15.288 2°50.768 3.0331 2.714451 29.30032 2.791947
2005-03-08 07:44:02 51°15.284 2°50.741 3.0233 2.714451 29.30032 2.791947
2005-03-08 07:44:06 51°15.281 2°50.714 3.0216 2.714976 29.296758 2.960494
2005-03-08 07:44:11 51°15.276 2°50.688 3.0354 2.715292 29.298054 2.960494
2005-03-08 07:44:17 51°15.272 2°50.653 3.0336 2.716344 29.309734 2.960494
2005-03-08 07:44:22 51°15.266 2°50.621 3.039 2.71666 29.312665 2.994204
2005-03-08 07:44:27 51°15.263 2°50.595 3.0262 2.71687 29.317618 3.061623
2005-03-08 07:44:30 51°15.26 2°50.574 3.0268 2.71687 29.317618 3.061623
2005-03-08 07:44:37 51°15.254 2°50.536 3.0236 2.716449 29.316709 3.061623
2005-03-08 07:44:42 51°15.25 2°50.504 3.0155 2.716029 29.313346 3.19646
2005-03-08 07:44:47 51°15.245 2°50.478 3.0211 2.715503 29.306278 3.162751
2005-03-08 07:44:51 51°15.243 2°50.453 3.0356 2.715082 29.299643 3.162751
2005-03-08 07:44:57 51°15.237 2°50.416 3.0313 2.714976 29.298393 3.162751
2005-03-08 07:45:01 51°15.234 2°50.395 3.0292 2.714976 29.298393 3.162751
2005-03-08 07:45:07 51°15.229 2°50.36 3.0316 2.715082 29.302096 3.095332
2005-03-08 07:45:11 51°15.225 2°50.333 3.0336 2.715503 29.308732 3.027913
2005-03-08 07:45:17 51°15.221 2°50.302 3.0307 2.716029 29.32071 2.994204
2005-03-08 07:45:22 51°15.216 2°50.272 3.0182 2.716449 29.321619 3.027913
2005-03-08 07:45:27 51°15.212 2°50.243 3.035 2.717081 29.325846 2.994204
2005-03-08 07:45:32 51°15.207 2°50.214 3.0287 2.717081 29.325846 2.994204
2005-03-08 07:45:37 51°15.203 2°50.185 3.0229 2.717922 29.33421 2.994204
2005-03-08 07:45:41 51°15.199 2°50.159 3.0177 2.718133 29.334254 3.061623
2005-03-08 07:45:47 51°15.195 2°50.127 3.0245 2.717922 29.330117 2.960494
2005-03-08 07:45:52 51°15.19 2°50.098 3.0551 2.718238 29.338779 2.994204
2005-03-08 07:45:57 51°15.187 2°50.068 3.0441 2.718343 29.33921 3.027913
2005-03-08 07:46:01 51°15.183 2°50.046 3.0265 2.718343 29.33921 3.027913
2005-03-08 07:46:07 51°15.178 2°50.011 3.0198 2.718238 29.33796 2.994204
2005-03-08 07:46:11 51°15.176 2°49.987 3.0058 2.717922 29.337485 2.994204
2005-03-08 07:46:17 51°15.17 2°49.949 3.0032 2.717396 29.332871 2.960494
2005-03-08 07:46:22 51°15.166 2°49.922 3.0103 2.717186 29.328733 2.994204
2005-03-08 07:46:26 51°15.163 2°49.896 3.0004 2.71666 29.316755 2.960494
2005-03-08 07:46:32 51°15.158 2°49.863 3.0231 2.71666 29.316755 2.960494
2005-03-08 07:46:37 51°15.155 2°49.834 2.9928 2.71666 29.320846 2.960494
2005-03-08 07:46:41 51°15.15 2°49.808 3.0084 2.716029 29.32071 2.960494
2005-03-08 07:46:46 51°15.148 2°49.779 3.0105 2.715713 29.321871 2.994204
2005-03-08 07:46:52 51°15.142 2°49.747 3.0255 2.715187 29.322987 3.061623
2005-03-08 07:46:57 51°15.138 2°49.717 3.0033 2.714556 29.314663 3.095332
2005-03-08 07:47:01 51°15.134 2°49.691 3.0075 2.714556 29.314663 3.095332
2005-03-08 07:47:07 51°15.131 2°49.658 3.0072 2.714135 29.307205 3.23017
2005-03-08 07:47:12 51°15.126 2°49.629 2.9942 2.71403 29.310866 3.19646
2005-03-08 07:47:16 51°15.123 2°49.602 2.9931 2.713925 29.310434 3.23017
2005-03-08 07:47:21 51°15.12 2°49.572 2.9998 2.713819 29.30509 3.162751
2005-03-08 07:47:26 51°15.115 2°49.543 2.996 2.713609 29.299316 3.129042
2005-03-08 07:47:31 51°15.112 2°49.516 2.9927 2.713609 29.299316 3.129042
2005-03-08 07:47:37 51°15.107 2°49.481 3.0029 2.713925 29.306341 3.129042
2005-03-08 07:47:41 51°15.103 2°49.454 3.0022 2.714135 29.312116 3.095332
2005-03-08 07:47:47 51°15.099 2°49.423 3.0081 2.714556 29.320395 2.960494
2005-03-08 07:47:52 51°15.095 2°49.39 3.0554 2.714556 29.321215 2.994204
2005-03-08 07:47:57 51°15.092 2°49.364 3.0241 2.714977 29.328676 2.859366
2005-03-08 07:48:01 51°15.088 2°49.337 3.0177 2.714977 29.328676 2.859366
2005-03-08 07:48:07 51°15.083 2°49.301 3.0144 2.715187 29.333637 2.893076
2005-03-08 07:48:12 51°15.079 2°49.272 3.0165 2.715818 29.337866 2.926785
2005-03-08 07:48:17 51°15.075 2°49.243 3.0172 2.716029 29.33709 2.825657
2005-03-08 07:48:22 51°15.071 2°49.216 3.0227 2.71645 29.333901 2.893076
2005-03-08 07:48:27 51°15.067 2°49.187 3.0045 2.71645 29.333901 2.893076
2005-03-08 07:48:32 51°15.063 2°49.155 3.0109 2.71687 29.330713 2.859366
2005-03-08 07:48:37 51°15.059 2°49.128 3.0075 2.717922 29.344037 2.825657
2005-03-08 07:48:41 51°15.056 2°49.105 3.0162 2.718764 29.358139 2.926785
2005-03-08 07:48:47 51°15.051 2°49.069 3.0107 2.719185 29.363142 2.893076
2005-03-08 07:48:51 51°15.048 2°49.042 3.0129 2.719501 29.362795 2.926785
2005-03-08 07:48:57 51°15.043 2°49.008 3.0164 2.720132 29.373579 2.994204
2005-03-08 07:49:02 51°15.04 2°48.981 3.0289 2.720132 29.373579 2.994204
2005-03-08 07:49:07 51°15.036 2°48.95 3.0188 2.720868 29.385616 2.960494
2005-03-08 07:49:11 51°15.034 2°48.927 3.0146 2.721184 29.39019 3.027913
2005-03-08 07:49:17 51°15.028 2°48.892 3.0175 2.721605 29.395194 3.061623
2005-03-08 07:49:22 51°15.024 2°48.86 3.0251 2.721815 29.397696 3.129042
2005-03-08 07:49:27 51°15.02 2°48.832 3.0283 2.722447 29.404382 3.061623
2005-03-08 07:49:32 51°15.016 2°48.804 3.0282 2.722447 29.404382 3.061623
2005-03-08 07:49:37 51°15.013 2°48.774 3.0344 2.722762 29.403209 3.162751
2005-03-08 07:49:41 51°15.008 2°48.748 3.041 2.723183 29.408212 3.19646
2005-03-08 07:49:47 51°15.005 2°48.716 3.0275 2.723814 29.413254 3.129042
2005-03-08 07:49:52 51°15.001 2°48.686 3.025 2.72413 29.416186 3.129042
2005-03-08 07:49:57 51°14.996 2°48.658 3.0269 2.72434 29.417866 3.095332
2005-03-08 07:50:01 51°14.993 2°48.631 3.0307 2.72434 29.417866 3.095332
2005-03-08 07:50:07 51°14.987 2°48.598 3.0388 2.724761 29.420406 3.061623
2005-03-08 07:50:11 51°14.985 2°48.574 3.0212 2.724971 29.419623 3.061623
2005-03-08 07:50:17 51°14.979 2°48.537 3.035 2.725182 29.41884 3.027913
2005-03-08 07:50:21 51°14.976 2°48.513 3.0409 2.725392 29.424625 3.027913
2005-03-08 07:50:27 51°14.971 2°48.481 3.0406 2.725813 29.432913 2.994204
2005-03-08 07:50:31 51°14.968 2°48.457 3.0383 2.725813 29.432913 2.994204
2005-03-08 07:50:36 51°14.964 2°48.425 3.0381 2.726234 29.438738 2.994204
2005-03-08 07:50:42 51°14.96 2°48.392 3.0435 2.726655 29.442098 2.960494
2005-03-08 07:50:47 51°14.956 2°48.364 3.0432 2.727391 29.452498 2.994204
2005-03-08 07:50:51 51°14.953 2°48.34 3.0246 2.727812 29.455036 2.960494
2005-03-08 07:50:57 51°14.948 2°48.305 3.0333 2.728443 29.460074 2.926785
2005-03-08 07:51:01 51°14.945 2°48.278 3.032 2.728443 29.460074 2.926785
2005-03-08 07:51:07 51°14.94 2°48.247 3.04 2.727602 29.448424 2.926785
2005-03-08 07:51:12 51°14.937 2°48.215 3.0464 2.729075 29.465935 2.960494
2005-03-08 07:51:17 51°14.933 2°48.187 3.041 2.728338 29.45307 2.926785
2005-03-08 07:51:21 51°14.929 2°48.161 3.0356 2.731389 29.490984 2.960494
2005-03-08 07:51:27 51°14.925 2°48.129 3.0369 2.730232 29.482985 2.960494
2005-03-08 07:51:31 51°14.922 2°48.102 3.0383 2.730232 29.482985 2.960494
2005-03-08 07:51:37 51°14.917 2°48.072 3.0515 2.732126 29.50468 2.859366
2005-03-08 07:51:42 51°14.913 2°48.042 3.0567 2.732652 29.509289 2.859366
2005-03-08 07:51:46 51°14.91 2°48.016 3.0453 2.732757 29.504776 2.791947
2005-03-08 07:51:52 51°14.906 2°47.983 3.0593 2.733388 29.510634 2.859366
2005-03-08 07:51:57 51°14.901 2°47.955 3.0648 2.732757 29.504776 2.724529
2005-03-08 07:52:02 51°14.899 2°47.925 3.0684 2.732757 29.504776 2.724529
2005-03-08 07:52:07 51°14.894 2°47.896 3.0593 2.734546 29.52604 2.690819
2005-03-08 07:52:12 51°14.89 2°47.867 3.0638 2.733704 29.512739 2.724529
2005-03-08 07:52:17 51°14.887 2°47.835 3.0577 2.735703 29.534857 2.690819
2005-03-08 07:52:21 51°14.883 2°47.812 3.0517 2.73686 29.547791 2.6234
2005-03-08 07:52:27 51°14.879 2°47.779 3.0648 2.737702 29.556974 2.6234
2005-03-08 07:52:31 51°14.876 2°47.753 3.0559 2.737702 29.556974 2.6234
2005-03-08 07:52:37 51°14.872 2°47.721 3.0602 2.738438 29.561607 2.65711
2005-03-08 07:52:41 51°14.869 2°47.695 3.07 2.741069 29.584625 2.65711
2005-03-08 07:52:47 51°14.865 2°47.663 3.0573 2.742331 29.597982 2.589691
2005-03-08 07:52:52 51°14.861 2°47.633 3.0598 2.743278 29.614192 2.522272
2005-03-08 07:52:57 51°14.856 2°47.602 3.0686 2.742857 29.610014 2.555982
2005-03-08 07:53:01 51°14.853 2°47.579 3.0682 2.742857 29.610014 2.555982
2005-03-08 07:53:07 51°14.849 2°47.546 3.0654 2.74433 29.6267 2.522272
2005-03-08 07:53:11 51°14.844 2°47.524 3.0676 2.745172 29.636708 2.555982
2005-03-08 07:53:17 51°14.84 2°47.488 3.0735 2.746014 29.645062 2.522272
2005-03-08 07:53:21 51°14.838 2°47.464 3.0704 2.747487 29.665058 2.522272
2005-03-08 07:53:27 51°14.832 2°47.43 3.0779 2.747487 29.663403 2.488563
2005-03-08 07:53:32 51°14.828 2°47.4 3.0701 2.747487 29.663403 2.488563
2005-03-08 07:53:37 51°14.824 2°47.372 3.0813 2.749275 29.680534 2.488563
2005-03-08 07:53:41 51°14.821 2°47.345 3.0726 2.748539 29.669296 2.488563
2005-03-08 07:53:47 51°14.816 2°47.309 3.0708 2.749696 29.682228 2.488563
2005-03-08 07:53:51 51°14.814 2°47.289 3.0755 2.749907 29.682247 2.488563
2005-03-08 07:53:57 51°14.81 2°47.254 3.0742 2.750117 29.682267 2.522272
2005-03-08 07:54:01 51°14.806 2°47.228 3.0745 2.750117 29.682267 2.522272
2005-03-08 07:54:07 51°14.803 2°47.195 3.0726 2.750222 29.68269 2.555982
2005-03-08 07:54:12 51°14.798 2°47.167 3.0772 2.749801 29.674379 2.589691
2005-03-08 07:54:17 51°14.794 2°47.135 3.0805 2.751064 29.691041 2.589691
2005-03-08 07:54:22 51°14.79 2°47.109 3.0912 2.750433 29.684364 2.65711
2005-03-08 07:54:27 51°14.785 2°47.079 3.099 2.751274 29.693542 2.65711
2005-03-08 07:54:32 51°14.781 2°47.048 3.0788 2.751274 29.693542 2.65711
2005-03-08 07:54:37 51°14.775 2°47.022 3.0786 2.751695 29.701028 2.589691
2005-03-08 07:54:41 51°14.773 2°46.996 3.0755 2.75138 29.697276 2.65711
2005-03-08 07:54:47 51°14.769 2°46.963 3.0833 2.750854 29.690194 2.724529
2005-03-08 07:54:52 51°14.765 2°46.936 3.0775 2.751169 29.689809 2.758238
2005-03-08 07:54:57 51°14.76 2°46.905 3.0837 2.751485 29.686942 2.690819
2005-03-08 07:55:01 51°14.758 2°46.879 3.0843 2.751485 29.686942 2.690819
2005-03-08 07:55:07 51°14.752 2°46.847 3.0905 2.751064 29.685249 2.825657
2005-03-08 07:55:12 51°14.748 2°46.815 3.1041 2.751695 29.696062 2.825657
2005-03-08 07:55:17 51°14.746 2°46.79 3.1027 2.751695 29.696889 2.859366
2005-03-08 07:55:21 51°14.741 2°46.763 3.1069 2.750748 29.684807 2.825657
2005-03-08 07:55:27 51°14.738 2°46.731 3.1032 2.752011 29.699814 2.893076
2005-03-08 07:55:32 51°14.733 2°46.702 3.1054 2.752011 29.699814 2.893076
2005-03-08 07:55:37 51°14.73 2°46.672 3.1082 2.752642 29.704006 2.926785
2005-03-08 07:55:42 51°14.726 2°46.644 3.1117 2.75401 29.716124 2.994204
2005-03-08 07:55:47 51°14.722 2°46.613 3.1046 2.753694 29.709061 3.061623
2005-03-08 07:55:52 51°14.719 2°46.584 3.1039 2.755062 29.72366 3.162751
2005-03-08 07:55:57 51°14.715 2°46.553 3.1024 2.755378 29.721615 3.162751
2005-03-08 07:56:01 51°14.711 2°46.53 3.1139 2.755378 29.721615 3.162751
2005-03-08 07:56:07 51°14.707 2°46.497 3.1197 2.756851 29.739117 3.19646
2005-03-08 07:56:12 51°14.702 2°46.466 3.115 2.75664 29.73496 3.162751
2005-03-08 07:56:17 51°14.699 2°46.44 3.1367 2.757482 29.744133 3.19646
2005-03-08 07:56:22 51°14.695 2°46.407 3.122 2.758745 29.759135 3.162751
2005-03-08 07:56:27 51°14.691 2°46.381 3.1279 2.75885 29.759556 3.129042
2005-03-08 07:56:30 51°14.689 2°46.361 3.1353 2.75885 29.759556 3.129042
2005-03-08 07:56:37 51°14.683 2°46.32 3.1276 2.759165 29.761649 3.095332
2005-03-08 07:56:41 51°14.681 2°46.297 3.1425 2.760639 29.774177 3.061623
2005-03-08 07:56:47 51°14.676 2°46.265 3.1424 2.760323 29.766284 3.095332
2005-03-08 07:56:51 51°14.673 2°46.242 3.1487 2.761796 29.77715 3.027913
2005-03-08 07:56:57 51°14.668 2°46.205 3.1351 2.761164 29.767167 2.994204
2005-03-08 07:57:01 51°14.665 2°46.182 3.1517 2.761164 29.767167 2.994204
2005-03-08 07:57:07 51°14.661 2°46.149 3.1434 2.762532 29.781754 2.994204
2005-03-08 07:57:12 51°14.657 2°46.122 3.1441 2.764531 29.805496 2.994204
2005-03-08 07:57:17 51°14.652 2°46.092 3.1464 2.764426 29.795955 2.960494
2005-03-08 07:57:21 51°14.649 2°46.069 3.1548 2.76611 29.812627 2.926785
2005-03-08 07:57:27 51°14.646 2°46.036 3.1621 2.766531 29.816795 2.960494
2005-03-08 07:57:32 51°14.64 2°46.004 3.1622 2.766531 29.816795 2.960494
2005-03-08 07:57:37 51°14.637 2°45.977 3.1626 2.767477 29.828038 2.893076
2005-03-08 07:57:41 51°14.634 2°45.953 3.1576 2.767372 29.828448 2.960494
2005-03-08 07:57:47 51°14.629 2°45.921 3.157 2.768109 29.836364 2.926785
2005-03-08 07:57:52 51°14.625 2°45.892 3.1665 2.769582 29.851365 2.859366
2005-03-08 07:57:57 51°14.621 2°45.861 3.1515 2.769687 29.847634 2.791947
2005-03-08 07:58:01 51°14.618 2°45.838 3.1628 2.769687 29.847634 2.791947
2005-03-08 07:58:07 51°14.614 2°45.806 3.1591 2.769161 29.83641 2.859366
2005-03-08 07:58:11 51°14.61 2°45.78 3.1637 2.771265 29.859729 2.791947
2005-03-08 07:58:17 51°14.606 2°45.749 3.1662 2.770844 29.855564 2.825657
2005-03-08 07:58:21 51°14.603 2°45.723 3.1743 2.771476 29.863058 2.893076
2005-03-08 07:58:27 51°14.599 2°45.692 3.1634 2.772633 29.875136 2.893076
2005-03-08 07:58:31 51°14.595 2°45.665 3.1667 2.772633 29.875136 2.893076
2005-03-08 07:58:37 51°14.591 2°45.632 3.1641 2.772423 29.873469 2.960494
2005-03-08 07:58:41 51°14.588 2°45.608 3.1701 2.77337 29.883049 2.893076
2005-03-08 07:58:47 51°14.584 2°45.575 3.1759 2.773896 29.887633 2.893076
2005-03-08 07:58:51 51°14.58 2°45.549 3.1718 2.774211 29.888057 2.926785
2005-03-08 07:58:57 51°14.575 2°45.515 3.178 2.774737 29.891809 2.960494
2005-03-08 07:59:01 51°14.572 2°45.492 3.1896 2.774737 29.891809 2.960494
2005-03-08 07:59:07 51°14.568 2°45.459 3.1784 2.775369 29.900133 2.994204
2005-03-08 07:59:11 51°14.563 2°45.433 3.187 2.775579 29.903462 2.926785
2005-03-08 07:59:17 51°14.559 2°45.401 3.1827 2.775474 29.898889 3.23017
2005-03-08 07:59:21 51°14.556 2°45.375 3.1803 2.776737 29.91055 2.994204
2005-03-08 07:59:27 51°14.552 2°45.342 3.1857 2.777368 29.918043 2.994204
2005-03-08 07:59:31 51°14.549 2°45.318 3.1848 2.777368 29.918043 2.994204
2005-03-08 07:59:37 51°14.545 2°45.283 3.1974 2.777578 29.917215 3.129042
2005-03-08 07:59:41 51°14.542 2°45.259 3.1961 2.777999 29.918885 3.061623
2005-03-08 07:59:47 51°14.538 2°45.223 3.2026 2.778315 29.921799 3.061623
2005-03-08 07:59:51 51°14.536 2°45.195 3.1905 2.778841 29.928874 3.162751
2005-03-08 07:59:57 51°14.532 2°45.163 3.1887 2.780104 29.943026 3.162751
2005-03-08 08:00:02 51°14.528 2°45.13 3.202 2.780104 29.943026 3.162751
2005-03-08 08:00:07 51°14.526 2°45.103 3.1971 2.780104 29.942194 3.263879
2005-03-08 08:00:11 51°14.523 2°45.075 3.2051 2.781051 29.950104 3.263879
2005-03-08 08:00:17 51°14.518 2°45.04 3.206 2.780419 29.940118 3.23017
2005-03-08 08:00:21 51°14.517 2°45.019 3.205 2.78084 29.941785 3.23017
2005-03-08 08:00:27 51°14.513 2°44.982 3.2128 2.782945 29.967585 3.19646
2005-03-08 08:00:31 51°14.512 2°44.96 3.212 2.782945 29.967585 3.19646
2005-03-08 08:00:37 51°14.509 2°44.922 3.2123 2.782313 29.95843 3.19646
2005-03-08 08:00:41 51°14.507 2°44.896 3.2191 2.783365 29.967585 3.162751
2005-03-08 08:00:47 51°14.504 2°44.864 3.22 2.783892 29.970498 3.095332
2005-03-08 08:00:51 51°14.502 2°44.835 3.2245 2.784733 29.977155 2.994204
2005-03-08 08:00:57 51°14.499 2°44.802 3.2264 2.785575 29.984643 2.926785
2005-03-08 08:01:01 51°14.498 2°44.777 3.2363 2.785575 29.984643 2.926785
2005-03-08 08:01:07 51°14.495 2°44.743 3.2443 2.786943 29.997537 2.859366
2005-03-08 08:01:11 51°14.494 2°44.716 3.2423 2.787679 30.005441 2.926785
2005-03-08 08:01:17 51°14.492 2°44.684 3.2339 2.789573 30.024573 2.893076
2005-03-08 08:01:21 51°14.489 2°44.657 3.245 2.79052 30.033305 2.960494
2005-03-08 08:01:26 51°14.489 2°44.627 3.2425 2.791888 30.044527 3.027913
2005-03-08 08:01:31 51°14.486 2°44.6 3.2427 2.791888 30.044527 3.027913
2005-03-08 08:01:37 51°14.485 2°44.565 3.2529 2.793361 30.055326 2.960494
2005-03-08 08:01:42 51°14.482 2°44.535 3.2496 2.794414 30.063634 2.960494
2005-03-08 08:01:47 51°14.481 2°44.504 3.2597 2.793888 30.054896 3.061623
2005-03-08 08:01:51 51°14.478 2°44.477 3.2456 2.796834 30.09066 2.859366
2005-03-08 08:01:57 51°14.477 2°44.442 3.2381 2.797886 30.102302 2.825657
2005-03-08 08:02:01 51°14.475 2°44.418 3.2382 2.797886 30.102302 2.825657
2005-03-08 08:02:07 51°14.472 2°44.385 3.2425 2.798517 30.108953 2.859366
2005-03-08 08:02:11 51°14.471 2°44.361 3.2447 2.79757 30.093552 2.893076
2005-03-08 08:02:17 51°14.468 2°44.322 3.2418 2.798728 30.10644 2.926785
2005-03-08 08:02:21 51°14.467 2°44.298 3.2472 2.798728 30.103101 2.825657
2005-03-08 08:02:27 51°14.464 2°44.265 3.2465 2.798938 30.10977 2.859366
2005-03-08 08:02:32 51°14.462 2°44.235 3.252 2.798938 30.10977 2.859366
2005-03-08 08:02:37 51°14.461 2°44.205 3.2579 2.799254 30.116017 2.791947
2005-03-08 08:02:41 51°14.458 2°44.178 3.2617 2.799675 30.121843 2.724529
2005-03-08 08:02:47 51°14.457 2°44.145 3.269 2.800096 30.125999 2.65711
2005-03-08 08:02:52 51°14.452 2°44.114 3.2702 2.799254 30.116017 2.522272
2005-03-08 08:02:57 51°14.453 2°44.084 3.2654 2.799254 30.116017 2.522272
2005-03-08 08:03:01 51°14.449 2°44.058 3.2651 2.800517 30.127648 2.488563
2005-03-08 08:03:07 51°14.447 2°44.024 3.2682 2.8022 30.145103 2.421144
2005-03-08 08:03:11 51°14.446 2°44 3.2699 2.802516 30.144668 2.387435
2005-03-08 08:03:17 51°14.443 2°43.964 3.2693 2.803252 30.148386 2.320016
2005-03-08 08:03:21 51°14.442 2°43.937 3.2727 2.802305 30.13215 2.218888
2005-03-08 08:03:27 51°14.439 2°43.904 3.2711 2.804726 30.157491 2.185178
2005-03-08 08:03:31 51°14.437 2°43.88 3.2733 2.804726 30.157491 2.185178
2005-03-08 08:03:37 51°14.435 2°43.843 3.2739 2.805462 30.167056 2.252597
2005-03-08 08:03:41 51°14.433 2°43.816 3.278 2.805883 30.172881 2.151469
2005-03-08 08:03:47 51°14.431 2°43.784 3.2867 2.804936 30.159985 2.185178
2005-03-08 08:03:50 51°14.428 2°43.762 3.2919 2.806514 30.177855 2.117759
2005-03-08 08:03:57 51°14.426 2°43.723 3.284 2.807041 30.182419 2.117759
2005-03-08 08:04:02 51°14.424 2°43.693 3.2918 2.807041 30.182419 2.117759
2005-03-08 08:04:07 51°14.421 2°43.662 3.289 2.807777 30.189476 2.08405
2005-03-08 08:04:11 51°14.42 2°43.635 3.2892 2.807882 30.190723 2.016631
2005-03-08 08:04:17 51°14.418 2°43.603 3.2896 2.808935 30.200684 2.016631
2005-03-08 08:04:22 51°14.415 2°43.572 3.293 2.809566 30.20482 2.016631
2005-03-08 08:04:27 51°14.414 2°43.543 3.2877 2.810092 30.207708 2.016631
2005-03-08 08:04:31 51°14.411 2°43.516 3.2953 2.810092 30.207708 2.016631
2005-03-08 08:04:37 51°14.409 2°43.481 3.3036 2.808724 30.188992 1.982922
2005-03-08 08:04:41 51°14.407 2°43.457 3.304 2.810934 30.212663 1.915503
2005-03-08 08:04:47 51°14.404 2°43.424 3.2984 2.81146 30.218896 1.949212
2005-03-08 08:04:51 51°14.402 2°43.397 3.2975 2.812091 30.224703 1.949212
2005-03-08 08:04:57 51°14.398 2°43.363 3.3117 2.812512 30.230527 1.915503
2005-03-08 08:05:01 51°14.395 2°43.34 3.3096 2.812512 30.230527 1.915503
2005-03-08 08:05:06 51°14.394 2°43.31 3.3037 2.813565 30.242157 1.915503
2005-03-08 08:05:11 51°14.391 2°43.28 3.3116 2.814617 30.248763 1.915503
2005-03-08 08:05:17 51°14.389 2°43.246 3.311 2.815669 30.257879 1.949212
2005-03-08 08:05:21 51°14.388 2°43.222 3.3192 2.817248 30.276578 2.08405
2005-03-08 08:05:27 51°14.385 2°43.188 3.308 2.817879 30.281544 2.08405
2005-03-08 08:05:32 51°14.384 2°43.159 3.3126 2.817879 30.281544 2.08405
2005-03-08 08:05:37 51°14.382 2°43.13 3.3056 2.818405 30.2861 2.151469
2005-03-08 08:05:42 51°14.38 2°43.098 3.2987 2.81851 30.287347 2.08405
2005-03-08 08:05:47 51°14.379 2°43.071 3.3 2.819878 30.301037 2.117759
2005-03-08 08:05:52 51°14.376 2°43.041 3.2993 2.820404 30.304754 2.08405
2005-03-08 08:05:57 51°14.375 2°43.012 3.2985 2.821141 30.313479 2.050341
2005-03-08 08:06:01 51°14.373 2°42.985 3.2941 2.821141 30.313479 2.050341
2005-03-08 08:06:07 51°14.37 2°42.951 3.2917 2.821667 30.32139 2.117759
2005-03-08 08:06:12 51°14.368 2°42.92 3.2957 2.822299 30.330548 2.117759
2005-03-08 08:06:17 51°14.366 2°42.894 3.3 2.82314 30.343881 2.117759
2005-03-08 08:06:21 51°14.364 2°42.867 3.2899 2.82293 30.343067 2.151469
2005-03-08 08:06:27 51°14.361 2°42.834 3.2921 2.823456 30.350982 2.185178
2005-03-08 08:06:31 51°14.359 2°42.807 3.2966 2.823456 30.350982 2.185178
2005-03-08 08:06:37 51°14.355 2°42.774 3.3016 2.82314 30.34808 2.151469
2005-03-08 08:06:41 51°14.354 2°42.75 3.3082 2.823351 30.350575 2.218888
2005-03-08 08:06:47 51°14.352 2°42.712 3.3184 2.823035 30.348513 2.185178
2005-03-08 08:06:51 51°14.351 2°42.688 3.3247 2.823667 30.355997 2.185178
2005-03-08 08:06:57 51°14.349 2°42.656 3.3296 2.824088 30.363507 2.151469
2005-03-08 08:07:01 51°14.348 2°42.63 3.338 2.824088 30.363507 2.151469
2005-03-08 08:07:07 51°14.347 2°42.596 3.3431 2.824193 30.362233 2.151469
2005-03-08 08:07:11 51°14.345 2°42.573 3.3503 2.825035 30.368848 2.252597
2005-03-08 08:07:17 51°14.344 2°42.535 3.3524 2.825456 30.368793 2.185178
2005-03-08 08:07:22 51°14.342 2°42.509 3.3531 2.826613 30.375785 2.218888
2005-03-08 08:07:27 51°14.341 2°42.478 3.356 2.827139 30.375296 2.286306
2005-03-08 08:07:31 51°14.34 2°42.455 3.3579 2.827139 30.375296 2.286306
2005-03-08 08:07:37 51°14.339 2°42.42 3.3671 2.82777 30.376054 2.286306
2005-03-08 08:07:41 51°14.338 2°42.393 3.3534 2.828507 30.376378 2.320016
2005-03-08 08:07:47 51°14.337 2°42.36 3.3582 2.829138 30.378815 2.286306
2005-03-08 08:07:51 51°14.337 2°42.336 3.3625 2.829664 30.380845 2.252597
2005-03-08 08:07:57 51°14.335 2°42.301 3.3572 2.830401 30.385366 2.286306
2005-03-08 08:08:01 51°14.334 2°42.274 3.3627 2.830401 30.385366 2.286306
2005-03-08 08:08:07 51°14.333 2°42.242 3.3727 2.831138 30.391566 2.252597
2005-03-08 08:08:11 51°14.331 2°42.215 3.3704 2.831138 30.390726 2.218888
2005-03-08 08:08:17 51°14.33 2°42.183 3.3676 2.83219 30.402341 2.252597
2005-03-08 08:08:21 51°14.329 2°42.156 3.3643 2.832506 30.404397 2.185178
2005-03-08 08:08:27 51°14.328 2°42.12 3.369 2.832611 30.403963 2.218888
2005-03-08 08:08:31 51°14.327 2°42.096 3.3706 2.832611 30.403963 2.218888
2005-03-08 08:08:37 51°14.326 2°42.065 3.3753 2.833242 30.409755 2.185178
2005-03-08 08:08:41 51°14.325 2°42.038 3.3752 2.833347 30.40764 2.218888
2005-03-08 08:08:47 51°14.324 2°42.006 3.3791 2.833558 30.407611 2.252597
2005-03-08 08:08:52 51°14.323 2°41.973 3.3738 2.833979 30.413432 2.252597
2005-03-08 08:08:57 51°14.321 2°41.946 3.377 2.834084 30.414677 2.252597
2005-03-08 08:09:01 51°14.321 2°41.92 3.375 2.834084 30.414677 2.252597
2005-03-08 08:09:06 51°14.319 2°41.891 3.3766 2.834295 30.417167 2.252597
2005-03-08 08:09:11 51°14.317 2°41.861 3.3782 2.834294 30.415487 2.320016
2005-03-08 08:09:17 51°14.317 2°41.826 3.3759 2.8344 30.415052 2.252597
2005-03-08 08:09:21 51°14.315 2°41.803 3.3766 2.834505 30.414618 2.286306
2005-03-08 08:09:27 51°14.314 2°41.77 3.3757 2.834821 30.417513 2.320016
2005-03-08 08:09:31 51°14.313 2°41.747 3.3725 2.834821 30.417513 2.320016
2005-03-08 08:09:37 51°14.312 2°41.711 3.3737 2.834505 30.412098 2.320016
2005-03-08 08:09:41 51°14.31 2°41.685 3.3795 2.833979 30.405034 2.320016
2005-03-08 08:09:47 51°14.309 2°41.653 3.3784 2.835242 30.418293 2.320016
2005-03-08 08:09:52 51°14.307 2°41.621 3.3826 2.833873 30.40211 2.320016
2005-03-08 08:09:57 51°14.306 2°41.595 3.3781 2.8344 30.408334 2.387435
2005-03-08 08:10:01 51°14.304 2°41.569 3.3765 2.8344 30.408334 2.387435
2005-03-08 08:10:07 51°14.302 2°41.536 3.3771 2.835557 30.424548 2.387435
2005-03-08 08:10:11 51°14.302 2°41.513 3.377 2.833873 30.404629 2.353725
2005-03-08 08:10:17 51°14.301 2°41.479 3.3759 2.835347 30.420378 2.353725
2005-03-08 08:10:21 51°14.3 2°41.456 3.3741 2.835347 30.418698 2.353725
2005-03-08 08:10:27 51°14.298 2°41.42 3.3769 2.835136 30.415369 2.387435
2005-03-08 08:10:32 51°14.298 2°41.392 3.3686 2.835136 30.415369 2.387435
2005-03-08 08:10:37 51°14.296 2°41.362 3.3717 2.834821 30.413314 2.421144
2005-03-08 08:10:42 51°14.296 2°41.333 3.3708 2.83461 30.409145 2.353725
2005-03-08 08:10:47 51°14.293 2°41.303 3.3824 2.834294 30.404571 2.387435
2005-03-08 08:10:51 51°14.294 2°41.28 3.3672 2.832716 30.388418 2.421144
2005-03-08 08:10:57 51°14.292 2°41.245 3.3711 2.833558 30.400055 2.488563
2005-03-08 08:11:01 51°14.292 2°41.219 3.3708 2.833558 30.400055 2.488563
2005-03-08 08:11:07 51°14.29 2°41.187 3.3723 2.833137 30.395075 2.454853
2005-03-08 08:11:11 51°14.291 2°41.16 3.3668 2.832716 30.391775 2.488563
2005-03-08 08:11:17 51°14.289 2°41.126 3.3758 2.83219 30.385551 2.522272
2005-03-08 08:11:21 51°14.288 2°41.103 3.3721 2.831769 30.379733 2.555982
2005-03-08 08:11:27 51°14.287 2°41.07 3.3715 2.831769 30.38141 2.589691
2005-03-08 08:11:30 51°14.286 2°41.051 3.3776 2.831769 30.38141 2.589691
2005-03-08 08:11:37 51°14.284 2°41.013 3.3768 2.831558 30.378921 2.65711
2005-03-08 08:11:41 51°14.283 2°40.99 3.3719 2.831348 30.378948 2.6234
2005-03-08 08:11:47 51°14.283 2°40.955 3.3677 2.831137 30.377297 2.65711
2005-03-08 08:11:51 51°14.282 2°40.933 3.3692 2.830822 30.372723 2.690819
2005-03-08 08:11:57 51°14.28 2°40.897 3.3884 2.830611 30.371072 2.65711
2005-03-08 08:12:01 51°14.28 2°40.871 3.3792 2.830611 30.371072 2.65711
2005-03-08 08:12:07 51°14.278 2°40.84 3.3787 2.830717 30.37064 2.65711
2005-03-08 08:12:11 51°14.277 2°40.816 3.3801 2.829454 30.35235 2.690819
2005-03-08 08:12:17 51°14.277 2°40.781 3.3739 2.830611 30.366879 2.690819
2005-03-08 08:12:21 51°14.276 2°40.755 3.3746 2.830717 30.369801 2.724529
2005-03-08 08:12:27 51°14.275 2°40.724 3.3773 2.830927 30.368936 2.724529
2005-03-08 08:12:31 51°14.274 2°40.701 3.3789 2.830927 30.368936 2.724529
2005-03-08 08:12:37 51°14.273 2°40.665 3.3862 2.831032 30.368504 2.724529
2005-03-08 08:12:41 51°14.272 2°40.639 3.377 2.830401 30.361875 2.65711
2005-03-08 08:12:46 51°14.27 2°40.611 3.3824 2.831243 30.370993 2.555982
2005-03-08 08:12:52 51°14.269 2°40.577 3.3794 2.831558 30.377243 2.555982
2005-03-08 08:12:57 51°14.268 2°40.551 3.3831 2.831558 30.378921 2.522272
2005-03-08 08:13:01 51°14.266 2°40.524 3.3915 2.831558 30.378921 2.522272
2005-03-08 08:13:07 51°14.266 2°40.492 3.3845 2.831137 30.372264 2.555982
2005-03-08 08:13:11 51°14.264 2°40.47 3.3912 2.832611 30.385496 2.454853
2005-03-08 08:13:17 51°14.263 2°40.434 3.3912 2.833347 30.394208 2.454853
2005-03-08 08:13:22 51°14.262 2°40.403 3.3934 2.833558 30.396698 2.387435
2005-03-08 08:13:27 51°14.26 2°40.377 3.4023 2.8344 30.405816 2.387435
2005-03-08 08:13:31 51°14.26 2°40.35 3.4018 2.8344 30.405816 2.387435
2005-03-08 08:13:37 51°14.258 2°40.32 3.404 2.834505 30.403703 2.320016
2005-03-08 08:13:41 51°14.257 2°40.293 3.4087 2.835873 30.419043 2.286306
2005-03-08 08:13:47 51°14.255 2°40.262 3.4059 2.836294 30.421503 2.320016
2005-03-08 08:13:51 51°14.255 2°40.239 3.4142 2.837662 30.436002 2.252597
2005-03-08 08:13:57 51°14.253 2°40.204 3.4131 2.838083 30.436781 2.286306
2005-03-08 08:14:01 51°14.253 2°40.179 3.414 2.838083 30.436781 2.286306
2005-03-08 08:14:07 51°14.251 2°40.147 3.4203 2.838504 30.437559 2.252597
2005-03-08 08:14:11 51°14.25 2°40.123 3.4268 2.840503 30.45952 2.320016
2005-03-08 08:14:17 51°14.249 2°40.09 3.4219 2.840398 30.454915 2.353725
2005-03-08 08:14:21 51°14.247 2°40.065 3.4187 2.841134 30.461104 2.353725
2005-03-08 08:14:27 51°14.247 2°40.032 3.4269 2.842397 30.472671 2.387435
2005-03-08 08:14:31 51°14.247 2°40.01 3.4252 2.842397 30.472671 2.387435
2005-03-08 08:14:37 51°14.244 2°39.975 3.4314 2.843239 30.481784 2.454853
2005-03-08 08:14:41 51°14.245 2°39.951 3.4246 2.843344 30.477984 2.421144
2005-03-08 08:14:47 51°14.242 2°39.918 3.4242 2.844397 30.487901 2.488563
2005-03-08 08:14:51 51°14.24 2°39.895 3.4323 2.845975 30.504037 2.522272
2005-03-08 08:14:57 51°14.237 2°39.86 3.4297 2.846291 30.50861 2.589691
2005-03-08 08:15:01 51°14.236 2°39.834 3.4264 2.846291 30.50861 2.589691
2005-03-08 08:15:07 51°14.232 2°39.8 3.4285 2.846712 30.511062 2.522272
2005-03-08 08:15:12 51°14.23 2°39.771 3.4263 2.846291 30.505245 2.589691
2005-03-08 08:15:17 51°14.227 2°39.745 3.4319 2.846186 30.504842 2.65711
2005-03-08 08:15:21 51°14.226 2°39.72 3.4254 2.846817 30.511464 2.6234
2005-03-08 08:15:27 51°14.222 2°39.687 3.4312 2.846291 30.502723 2.690819
2005-03-08 08:15:31 51°14.221 2°39.665 3.4296 2.846291 30.502723 2.690819
2005-03-08 08:15:37 51°14.217 2°39.632 3.4292 2.847027 30.51227 2.65711
2005-03-08 08:15:41 51°14.214 2°39.605 3.435 2.847343 30.516842 2.65711
2005-03-08 08:15:47 51°14.212 2°39.573 3.4285 2.846606 30.505613 2.65711
2005-03-08 08:15:51 51°14.209 2°39.549 3.4351 2.847133 30.513513 2.690819
2005-03-08 08:15:57 51°14.206 2°39.513 3.4337 2.846922 30.510185 2.724529
2005-03-08 08:16:02 51°14.203 2°39.486 3.4335 2.846922 30.510185 2.724529
2005-03-08 08:16:07 51°14.201 2°39.458 3.4343 2.846291 30.501041 2.724529
2005-03-08 08:16:10 51°14.198 2°39.438 3.4333 2.84608 30.499394 2.724529
2005-03-08 08:16:17 51°14.194 2°39.398 3.4345 2.846817 30.506418 2.690819
2005-03-08 08:16:21 51°14.192 2°39.375 3.4335 2.846922 30.507662 2.758238
2005-03-08 08:16:27 51°14.188 2°39.343 3.427 2.846817 30.505577 2.758238
2005-03-08 08:16:31 51°14.186 2°39.317 3.4306 2.846817 30.505577 2.758238
2005-03-08 08:16:37 51°14.182 2°39.286 3.4342 2.847027 30.508905 2.758238
2005-03-08 08:16:41 51°14.18 2°39.263 3.4391 2.846396 30.501444 2.758238
2005-03-08 08:16:47 51°14.177 2°39.229 3.4357 2.846817 30.506418 2.791947
2005-03-08 08:16:51 51°14.173 2°39.203 3.4335 2.846712 30.504334 2.724529
2005-03-08 08:16:57 51°14.17 2°39.169 3.4317 2.846291 30.49936 2.690819
2005-03-08 08:17:02 51°14.167 2°39.14 3.4315 2.846291 30.49936 2.690819
2005-03-08 08:17:07 51°14.164 2°39.115 3.4335 2.846712 30.505175 2.859366
2005-03-08 08:17:11 51°14.162 2°39.092 3.4302 2.846606 30.50309 2.893076
2005-03-08 08:17:17 51°14.157 2°39.057 3.4303 2.846817 30.503896 2.825657
2005-03-08 08:17:21 51°14.154 2°39.031 3.4307 2.847027 30.508065 2.960494
2005-03-08 08:17:27 51°14.15 2°38.999 3.4328 2.846817 30.505577 2.960494
2005-03-08 08:17:31 51°14.149 2°38.972 3.4323 2.846817 30.505577 2.960494
2005-03-08 08:17:37 51°14.145 2°38.94 3.4337 2.846606 30.503931 2.859366
2005-03-08 08:17:41 51°14.143 2°38.914 3.433 2.847238 30.50887 2.859366
2005-03-08 08:17:47 51°14.139 2°38.881 3.4302 2.846712 30.504334 2.791947
2005-03-08 08:17:52 51°14.137 2°38.85 3.4312 2.846712 30.503493 2.825657
2005-03-08 08:17:57 51°14.133 2°38.824 3.4362 2.846185 30.494754 2.758238
2005-03-08 08:18:01 51°14.132 2°38.798 3.4268 2.846185 30.494754 2.758238
2005-03-08 08:18:07 51°14.129 2°38.765 3.4271 2.847133 30.506786 2.690819
2005-03-08 08:18:12 51°14.126 2°38.733 3.4358 2.846817 30.505577 2.589691
2005-03-08 08:18:17 51°14.122 2°38.707 3.433 2.846501 30.501006 2.690819
2005-03-08 08:18:21 51°14.121 2°38.68 3.4315 2.845975 30.494789 2.6234
2005-03-08 08:18:27 51°14.117 2°38.648 3.433 2.846817 30.504737 2.65711
2005-03-08 08:18:31 51°14.116 2°38.626 3.4368 2.846817 30.504737 2.65711
2005-03-08 08:18:37 51°14.111 2°38.589 3.4363 2.846185 30.498116 2.690819
2005-03-08 08:18:41 51°14.109 2°38.564 3.4391 2.846817 30.506418 2.65711
2005-03-08 08:18:47 51°14.106 2°38.531 3.4428 2.846922 30.507662 2.758238
2005-03-08 08:18:51 51°14.104 2°38.507 3.4386 2.847027 30.508905 2.926785
2005-03-08 08:18:57 51°14.1 2°38.472 3.4366 2.847554 30.514283 2.825657
2005-03-08 08:19:01 51°14.096 2°38.446 3.4381 2.847554 30.514283 2.825657
2005-03-08 08:19:07 51°14.093 2°38.414 3.4347 2.847238 30.509711 2.859366
2005-03-08 08:19:12 51°14.089 2°38.381 3.439 2.847869 30.514649 2.960494
2005-03-08 08:19:17 51°14.087 2°38.355 3.4389 2.84808 30.515454 2.926785
2005-03-08 08:19:21 51°14.083 2°38.332 3.4399 2.847448 30.506312 2.994204
2005-03-08 08:19:27 51°14.081 2°38.295 3.4375 2.847448 30.507153 2.960494
2005-03-08 08:19:32 51°14.077 2°38.266 3.4319 2.847448 30.507153 2.960494
2005-03-08 08:19:37 51°14.075 2°38.236 3.4305 2.848185 30.517539 2.994204
2005-03-08 08:19:41 51°14.071 2°38.211 3.4379 2.847869 30.512127 2.893076
2005-03-08 08:19:47 51°14.066 2°38.178 3.4414 2.848395 30.518344 2.893076
2005-03-08 08:19:52 51°14.062 2°38.147 3.4386 2.848395 30.518344 2.825657
2005-03-08 08:19:57 51°14.054 2°38.119 3.4471 2.847133 30.502582 2.65711
2005-03-08 08:20:01 51°14.051 2°38.096 3.4446 2.847133 30.502582 2.65711
2005-03-08 08:20:07 51°14.043 2°38.065 3.4443 2.847553 30.509237 2.690819
2005-03-08 08:20:11 51°14.037 2°38.042 3.4507 2.847554 30.512601 2.522272
2005-03-08 08:20:17 51°14.03 2°38.008 3.4468 2.846712 30.500971 2.488563
2005-03-08 08:20:21 51°14.022 2°37.984 3.4567 2.847764 30.511724 2.589691
2005-03-08 08:20:27 51°14.013 2°37.952 3.4697 2.845764 30.48558 2.690819
2005-03-08 08:20:32 51°14.004 2°37.924 3.4518 2.845764 30.48558 2.690819
2005-03-08 08:20:37 51°13.995 2°37.9 3.4669 2.846922 30.501777 2.758238
2005-03-08 08:20:41 51°13.989 2°37.875 3.45 2.846922 30.495894 2.994204
2005-03-08 08:20:47 51°13.977 2°37.847 3.4571 2.84829 30.512055 3.061623
2005-03-08 08:20:52 51°13.97 2°37.818 3.4619 2.849658 30.524013 3.129042
2005-03-08 08:20:57 51°13.96 2°37.794 3.4523 2.850921 30.527998 3.095332
2005-03-08 08:21:02 51°13.95 2°37.767 3.4579 2.850921 30.527998 3.095332
2005-03-08 08:21:07 51°13.94 2°37.74 3.4619 2.8505 30.524708 3.129042
2005-03-08 08:21:12 51°13.931 2°37.711 3.4566 2.851763 30.539622 3.129042
2005-03-08 08:21:17 51°13.921 2°37.689 3.4519 2.851868 30.543389 3.162751
2005-03-08 08:21:21 51°13.913 2°37.668 3.459 2.851868 30.54423 3.095332
2005-03-08 08:21:27 51°13.901 2°37.633 3.4549 2.851763 30.542987 2.994204
2005-03-08 08:21:31 51°13.893 2°37.613 3.4542 2.851763 30.542987 2.994204
2005-03-08 08:21:37 51°13.883 2°37.584 3.4692 2.851763 30.542146 3.129042
2005-03-08 08:21:41 51°13.875 2°37.56 3.4583 2.851973 30.541267 3.162751
2005-03-08 08:21:47 51°13.864 2°37.531 3.4532 2.851973 30.542949 3.162751
2005-03-08 08:21:51 51°13.856 2°37.507 3.4623 2.852289 30.547519 3.19646
2005-03-08 08:21:57 51°13.846 2°37.477 3.4583 2.852605 30.551248 3.263879
2005-03-08 08:22:01 51°13.838 2°37.455 3.459 2.852605 30.551248 3.263879
2005-03-08 08:22:07 51°13.827 2°37.425 3.4594 2.852499 30.551688 3.263879
2005-03-08 08:22:11 51°13.82 2°37.404 3.4646 2.852499 30.547481 3.23017
2005-03-08 08:22:17 51°13.81 2°37.372 3.4539 2.85292 30.553295 3.263879
2005-03-08 08:22:22 51°13.799 2°37.343 3.46 2.853131 30.554939 3.23017
2005-03-08 08:22:27 51°13.79 2°37.316 3.4637 2.853236 30.554499 3.263879
2005-03-08 08:22:32 51°13.78 2°37.29 3.4622 2.853236 30.554499 3.263879
2005-03-08 08:22:37 51°13.771 2°37.263 3.4679 2.853236 30.555341 3.263879
2005-03-08 08:22:41 51°13.764 2°37.242 3.4609 2.853341 30.556583 3.263879
2005-03-08 08:22:47 51°13.754 2°37.213 3.461 2.853447 30.558668 3.297589
2005-03-08 08:22:51 51°13.746 2°37.192 3.464 2.853657 30.562837 3.297589
2005-03-08 08:22:57 51°13.735 2°37.158 3.4607 2.853973 30.565725 3.263879
2005-03-08 08:23:02 51°13.725 2°37.131 3.4618 2.853973 30.565725 3.263879
2005-03-08 08:23:07 51°13.718 2°37.106 3.4629 2.854078 30.564442 3.297589
2005-03-08 08:23:10 51°13.71 2°37.088 3.4675 2.854183 30.56316 3.331298
2005-03-08 08:23:17 51°13.697 2°37.051 3.4708 2.854288 30.564403 3.331298
2005-03-08 08:23:21 51°13.69 2°37.03 3.4635 2.854604 30.569815 3.331298
2005-03-08 08:23:27 51°13.679 2°37.002 3.4661 2.854709 30.570217 3.398717
2005-03-08 08:23:32 51°13.669 2°36.973 3.4925 2.854709 30.570217 3.398717
2005-03-08 08:23:37 51°13.661 2°36.947 3.4624 2.854815 30.572301 3.432426
2005-03-08 08:23:41 51°13.654 2°36.927 3.4662 2.854815 30.571459 3.365007
2005-03-08 08:23:47 51°13.644 2°36.898 3.4652 2.85492 30.571019 3.263879
2005-03-08 08:23:52 51°13.634 2°36.872 3.4689 2.855341 30.574307 3.331298
2005-03-08 08:23:57 51°13.626 2°36.845 3.4706 2.855551 30.57595 3.263879
2005-03-08 08:24:01 51°13.618 2°36.822 3.4675 2.855551 30.57595 3.263879
2005-03-08 08:24:07 51°13.608 2°36.792 3.4768 2.855762 30.569178 3.19646
2005-03-08 08:24:12 51°13.598 2°36.765 3.4737 2.856077 30.577113 3.23017
2005-03-08 08:24:17 51°13.59 2°36.735 3.4781 2.856077 30.580481 3.162751
2005-03-08 08:24:22 51°13.581 2°36.713 3.4731 2.856183 30.582565 3.061623
2005-03-08 08:24:27 51°13.572 2°36.687 3.4746 2.856288 30.583808 2.960494
2005-03-08 08:24:31 51°13.564 2°36.665 3.4757 2.856288 30.583808 2.960494
2005-03-08 08:24:37 51°13.555 2°36.632 3.4748 2.856604 30.585852 3.061623
2005-03-08 08:24:41 51°13.546 2°36.61 3.4744 2.856604 30.584169 2.994204
2005-03-08 08:24:47 51°13.536 2°36.581 3.4796 2.856919 30.586213 2.994204
2005-03-08 08:24:51 51°13.527 2°36.557 3.4757 2.856919 30.585371 3.095332
2005-03-08 08:24:57 51°13.515 2°36.528 3.4762 2.857235 30.589099 2.859366
2005-03-08 08:25:01 51°13.507 2°36.507 3.4746 2.857235 30.589099 2.859366
2005-03-08 08:25:07 51°13.495 2°36.476 3.482 2.85734 30.591183 2.960494
2005-03-08 08:25:11 51°13.489 2°36.458 3.4841 2.857445 30.59411 2.859366
2005-03-08 08:25:17 51°13.476 2°36.425 3.4795 2.857656 30.596596 2.893076
2005-03-08 08:25:22 51°13.467 2°36.402 3.4796 2.857656 30.594069 2.825657
2005-03-08 08:25:27 51°13.458 2°36.375 3.476 2.857972 30.596113 2.791947
2005-03-08 08:25:31 51°13.448 2°36.353 3.4761 2.857972 30.596113 2.791947
2005-03-08 08:25:37 51°13.437 2°36.323 3.4798 2.858287 30.600683 2.859366
2005-03-08 08:25:42 51°13.427 2°36.297 3.477 2.858077 30.595671 2.724529
2005-03-08 08:25:47 51°13.419 2°36.273 3.4838 2.858498 30.598957 2.758238
2005-03-08 08:25:50 51°13.412 2°36.256 3.4752 2.858603 30.6002 2.65711
2005-03-08 08:25:57 51°13.399 2°36.223 3.4781 2.858919 30.605612 2.690819
2005-03-08 08:26:01 51°13.39 2°36.201 3.4783 2.858919 30.605612 2.690819
2005-03-08 08:26:07 51°13.378 2°36.172 3.4932 2.859129 30.607255 2.791947
2005-03-08 08:26:11 51°13.371 2°36.152 3.4876 2.859234 30.608497 2.6234
2005-03-08 08:26:17 51°13.358 2°36.122 3.4954 2.85934 30.60974 2.6234
2005-03-08 08:26:21 51°13.352 2°36.101 3.4849 2.859024 30.606854 2.6234
2005-03-08 08:26:27 51°13.339 2°36.067 3.4753 2.85934 30.611425 2.589691
2005-03-08 08:26:32 51°13.331 2°36.041 3.4846 2.85934 30.611425 2.589691
2005-03-08 08:26:37 51°13.32 2°36.015 3.4893 2.85955 30.613067 2.555982
2005-03-08 08:26:41 51°13.314 2°35.995 3.4807 2.859761 30.609656 2.6234
2005-03-08 08:26:47 51°13.302 2°35.968 3.4796 2.859761 30.607971 2.555982
2005-03-08 08:26:52 51°13.293 2°35.938 3.475 2.859971 30.608772 2.6234
2005-03-08 08:26:57 51°13.284 2°35.913 3.4736 2.859971 30.612141 2.6234
2005-03-08 08:27:02 51°13.274 2°35.889 3.4749 2.859971 30.612141 2.6234
2005-03-08 08:27:07 51°13.266 2°35.866 3.4798 2.859866 30.612583 2.555982
2005-03-08 08:27:11 51°13.255 2°35.847 3.4958 2.860076 30.613383 2.555982
2005-03-08 08:27:17 51°13.245 2°35.814 3.4833 2.860182 30.61631 2.555982
2005-03-08 08:27:21 51°13.236 2°35.794 3.4764 2.85934 30.60974 2.522272
2005-03-08 08:27:27 51°13.223 2°35.768 3.4898 2.859866 30.617638 2.555982
2005-03-08 08:27:31 51°13.216 2°35.746 3.4846 2.859866 30.617638 2.555982
2005-03-08 08:27:37 51°13.201 2°35.715 3.493 2.859866 30.619324 2.488563
2005-03-08 08:27:41 51°13.195 2°35.694 3.4868 2.859971 30.618881 2.488563
2005-03-08 08:27:47 51°13.181 2°35.669 3.4985 2.859971 30.616353 2.454853
2005-03-08 08:27:51 51°13.176 2°35.646 3.4898 2.860076 30.617595 2.421144
2005-03-08 08:27:57 51°13.16 2°35.615 3.4954 2.860182 30.617153 2.454853
2005-03-08 08:28:01 51°13.155 2°35.596 3.4899 2.860182 30.617153 2.454853
2005-03-08 08:28:07 51°13.142 2°35.568 3.4844 2.859971 30.612141 2.421144
2005-03-08 08:28:12 51°13.132 2°35.543 3.4863 2.860392 30.61711 2.454853
2005-03-08 08:28:17 51°13.12 2°35.518 3.4817 2.860497 30.615825 2.421144
2005-03-08 08:28:21 51°13.113 2°35.496 3.4852 2.860708 30.617468 2.454853
2005-03-08 08:28:27 51°13.101 2°35.469 3.4869 2.860603 30.617068 2.387435
2005-03-08 08:28:31 51°13.093 2°35.449 3.4825 2.860603 30.617068 2.387435
2005-03-08 08:28:37 51°13.081 2°35.418 3.4789 2.860602 30.614541 2.421144
2005-03-08 08:28:42 51°13.069 2°35.393 3.4822 2.860813 30.619552 2.421144
2005-03-08 08:28:47 51°13.059 2°35.368 3.4818 2.861023 30.623722 2.421144
2005-03-08 08:28:51 51°13.051 2°35.348 3.4808 2.860813 30.622923 2.353725
2005-03-08 08:28:57 51°13.04 2°35.321 3.4846 2.860603 30.618753 2.353725
2005-03-08 08:29:01 51°13.031 2°35.299 3.4844 2.860603 30.618753 2.353725
2005-03-08 08:29:07 51°13.02 2°35.271 3.478 2.860708 30.62168 2.387435
2005-03-08 08:29:11 51°13.011 2°35.248 3.4694 2.860813 30.625451 2.387435
2005-03-08 08:29:17 51°13 2°35.222 3.4711 2.860708 30.623366 2.320016
2005-03-08 08:29:21 51°12.992 2°35.2 3.47 2.860813 30.623765 2.387435
2005-03-08 08:29:27 51°12.978 2°35.174 3.4959 2.860497 30.619195 2.320016
2005-03-08 08:29:32 51°12.97 2°35.146 3.4801 2.860497 30.619195 2.320016
2005-03-08 08:29:37 51°12.957 2°35.122 3.4749 2.860603 30.62128 2.353725
2005-03-08 08:29:41 51°12.95 2°35.102 3.4723 2.860918 30.625851 2.387435
2005-03-08 08:29:47 51°12.938 2°35.074 3.4801 2.860813 30.62798 2.320016
2005-03-08 08:29:51 51°12.93 2°35.053 3.4746 2.860813 30.629666 2.387435
2005-03-08 08:29:57 51°12.919 2°35.025 3.4712 2.860813 30.62798 2.320016
2005-03-08 08:30:02 51°12.908 2°34.998 3.4824 2.860813 30.62798 2.320016
2005-03-08 08:30:07 51°12.899 2°34.974 3.4769 2.860813 30.624608 2.320016
2005-03-08 08:30:11 51°12.891 2°34.955 3.4703 2.861024 30.629622 2.320016
2005-03-08 08:30:17 51°12.879 2°34.925 3.4704 2.860918 30.630908 2.320016
2005-03-08 08:30:22 51°12.868 2°34.902 3.4678 2.859866 30.614268 2.320016
2005-03-08 08:30:27 51°12.858 2°34.876 3.467 2.85934 30.60216 2.286306
2005-03-08 08:30:31 51°12.849 2°34.857 3.4633 2.85934 30.60216 2.286306
2005-03-08 08:30:37 51°12.838 2°34.827 3.4653 2.860287 30.620081 2.320016
2005-03-08 08:30:41 51°12.827 2°34.806 3.4676 2.860076 30.620966 2.286306
2005-03-08 08:30:47 51°12.816 2°34.778 3.4512 2.860076 30.625181 2.286306
2005-03-08 08:30:51 51°12.806 2°34.758 3.4493 2.858814 30.609424 2.185178
2005-03-08 08:30:57 51°12.794 2°34.732 3.451 2.859445 30.620252 2.252597
2005-03-08 08:31:01 51°12.783 2°34.71 3.4504 2.859445 30.620252 2.252597
2005-03-08 08:31:07 51°12.772 2°34.684 3.448 2.859129 30.619052 2.185178
2005-03-08 08:31:12 51°12.758 2°34.659 3.4437 2.858814 30.61448 2.218888
2005-03-08 08:31:17 51°12.748 2°34.635 3.4299 2.858708 30.614923 2.185178
2005-03-08 08:31:21 51°12.739 2°34.616 3.4284 2.858182 30.615451 2.117759
2005-03-08 08:31:27 51°12.725 2°34.591 3.432 2.857551 30.609678 2.151469
2005-03-08 08:31:31 51°12.715 2°34.573 3.4205 2.857551 30.609678 2.151469
2005-03-08 08:31:37 51°12.701 2°34.543 3.4219 2.857025 30.606833 2.117759
2005-03-08 08:31:41 51°12.69 2°34.523 3.4229 2.856814 30.607718 2.08405
2005-03-08 08:31:47 51°12.678 2°34.499 3.4133 2.856393 30.605274 2.050341
2005-03-08 08:31:52 51°12.664 2°34.476 3.4194 2.855762 30.603714 1.982922
2005-03-08 08:31:57 51°12.651 2°34.451 3.4216 2.854815 30.598422 2.016631
2005-03-08 08:32:02 51°12.639 2°34.43 3.4125 2.854815 30.598422 2.016631
2005-03-08 08:32:07 51°12.628 2°34.408 3.4037 2.854289 30.593888 2.016631
2005-03-08 08:32:12 51°12.615 2°34.387 3.4023 2.853552 30.591082 2.016631
2005-03-08 08:32:17 51°12.604 2°34.363 3.4092 2.85271 30.583658 1.949212
2005-03-08 08:32:21 51°12.591 2°34.345 3.4222 2.852079 30.580408 2.016631
2005-03-08 08:32:27 51°12.579 2°34.318 3.4063 2.851763 30.576675 1.915503
2005-03-08 08:32:32 51°12.564 2°34.296 3.386 2.851763 30.576675 1.915503
2005-03-08 08:32:37 51°12.553 2°34.275 3.4034 2.851237 30.572982 1.949212
2005-03-08 08:32:41 51°12.543 2°34.254 3.3846 2.850606 30.568887 1.881794
2005-03-08 08:32:47 51°12.526 2°34.23 3.3839 2.849974 30.563106 1.915503
2005-03-08 08:32:52 51°12.516 2°34.207 3.377 2.849658 30.556001 1.848084
2005-03-08 08:32:57 51°12.503 2°34.19 3.3785 2.849658 30.551788 1.848084
2005-03-08 08:33:01 51°12.493 2°34.171 3.3971 2.849658 30.551788 1.848084
2005-03-08 08:33:07 51°12.48 2°34.141 3.3673 2.848817 30.550258 1.915503
2005-03-08 08:33:12 51°12.467 2°34.123 3.3636 2.847975 30.5462 1.915503
2005-03-08 08:33:17 51°12.455 2°34.101 3.3665 2.846817 30.540091 1.848084
2005-03-08 08:33:22 51°12.442 2°34.08 3.362 2.846291 30.537237 1.848084
2005-03-08 08:33:27 51°12.429 2°34.057 3.3532 2.845765 30.532697 1.814375
2005-03-08 08:33:31 51°12.42 2°34.04 3.3448 2.845765 30.532697 1.814375
2005-03-08 08:33:37 51°12.404 2°34.015 3.3469 2.845554 30.525152 1.780665
2005-03-08 08:33:41 51°12.394 2°33.995 3.3393 2.844292 30.52032 1.780665
2005-03-08 08:33:47 51°12.379 2°33.97 3.3308 2.843134 30.514204 1.746956
2005-03-08 08:33:51 51°12.367 2°33.951 3.3243 2.841766 30.505595 1.713247
2005-03-08 08:33:57 51°12.352 2°33.927 3.2949 2.84103 30.499402 1.713247
2005-03-08 08:34:02 51°12.34 2°33.909 3.2869 2.84103 30.499402 1.713247
2005-03-08 08:34:07 51°12.327 2°33.889 3.2847 2.840082 30.49493 1.713247
2005-03-08 08:34:12 51°12.313 2°33.865 3.2802 2.839451 30.492509 1.713247
2005-03-08 08:34:17 51°12.298 2°33.848 3.2806 2.838399 30.483417 1.713247
2005-03-08 08:34:21 51°12.29 2°33.828 3.294 2.837767 30.480152 1.645828
2005-03-08 08:34:27 51°12.273 2°33.809 3.3025 2.835979 30.467387 1.848084
2005-03-08 08:34:30 51°12.264 2°33.793 3.3063 2.835979 30.467387 1.848084
2005-03-08 08:34:37 51°12.246 2°33.769 3.3167 2.833453 30.452627 2.08405
2005-03-08 08:34:41 51°12.234 2°33.751 3.3051 2.831454 30.439881 1.949212
2005-03-08 08:34:47 51°12.219 2°33.729 3.3027 2.830191 30.431651 1.881794
2005-03-08 08:34:51 51°12.205 2°33.711 3.3078 2.828507 30.415059 1.881794
2005-03-08 08:34:57 51°12.19 2°33.686 3.3009 2.826297 30.382132 1.848084
2005-03-08 08:35:02 51°12.175 2°33.67 3.299 2.826297 30.382132 1.848084
2005-03-08 08:35:07 51°12.163 2°33.651 3.3041 2.824719 30.359225 1.848084
2005-03-08 08:35:11 51°12.151 2°33.638 3.2967 2.823351 30.337139 1.915503
2005-03-08 08:35:17 51°12.132 2°33.618 3.2917 2.822719 30.327143 1.848084
2005-03-08 08:35:21 51°12.119 2°33.6 3.2776 2.821562 30.314271 1.881794
2005-03-08 08:35:27 51°12.103 2°33.582 3.2756 2.820299 30.300992 1.881794
2005-03-08 08:35:32 51°12.088 2°33.563 3.2894 2.820299 30.300992 1.881794
2005-03-08 08:35:37 51°12.074 2°33.544 3.2816 2.819562 30.293106 1.915503
2005-03-08 08:35:42 51°12.058 2°33.528 3.2785 2.819036 30.290226 2.050341
2005-03-08 08:35:47 51°12.043 2°33.51 3.2972 2.818615 30.284403 2.08405
2005-03-08 08:35:52 51°12.027 2°33.495 3.2649 2.818089 30.281523 2.185178
2005-03-08 08:35:57 51°12.011 2°33.476 3.2733 2.817458 30.279909 2.252597
2005-03-08 08:36:02 51°11.995 2°33.464 3.2761 2.817458 30.279909 2.252597
2005-03-08 08:36:07 51°11.981 2°33.446 3.2759 2.817142 30.277007 2.286306
2005-03-08 08:36:11 51°11.968 2°33.437 3.2732 2.816616 30.270774 2.252597
2005-03-08 08:36:17 51°11.952 2°33.416 3.2648 2.81588 30.267074 2.387435
2005-03-08 08:36:21 51°11.942 2°33.405 3.2478 2.815564 30.265009 2.454853
2005-03-08 08:36:27 51°11.93 2°33.39 3.2487 2.815143 30.262535 2.488563
2005-03-08 08:36:31 51°11.923 2°33.38 3.2422 2.815143 30.262535 2.488563
2005-03-08 08:36:37 51°11.911 2°33.363 3.2276 2.814406 30.255482 2.522272
2005-03-08 08:36:41 51°11.905 2°33.354 3.2375 2.814196 30.249638 2.522272
2005-03-08 08:36:47 51°11.896 2°33.342 3.2146 2.813565 30.242995 2.6234
2005-03-08 08:36:51 51°11.891 2°33.333 3.2291 2.812512 30.237224 2.6234
2005-03-08 08:36:57 51°11.883 2°33.322 3.2285 2.810513 30.222739 2.6234
2005-03-08 08:37:01 51°11.878 2°33.316 3.2214 2.810513 30.222739 2.6234
2005-03-08 08:37:07 51°11.87 2°33.308 3.1805 2.808303 30.208264 2.589691
2005-03-08 08:37:12 51°11.864 2°33.302 3.2063 2.806725 30.192897 2.589691
2005-03-08 08:37:17 51°11.857 2°33.298 3.1815 2.805778 30.186689 2.522272
2005-03-08 08:37:22 51°11.851 2°33.293 3.1903 2.804831 30.18299 2.522272
2005-03-08 08:37:27 51°11.845 2°33.292 3.2029 2.803989 30.175516 2.488563
2005-03-08 08:37:31 51°11.84 2°33.289 3.1566 2.803989 30.175516 2.488563
2005-03-08 08:37:37 51°11.834 2°33.288 3.1663 2.803042 30.167629 2.488563
2005-03-08 08:37:42 51°11.828 2°33.287 3.1758 2.801674 30.166464 2.454853
2005-03-08 08:37:47 51°11.823 2°33.287 3.178 2.800517 30.156076 2.387435
2005-03-08 08:37:51 51°11.819 2°33.287 3.1881 2.799675 30.156129 2.387435
2005-03-08 08:37:57 51°11.813 2°33.287 3.1599 2.798518 30.149922 2.353725
2005-03-08 08:38:02 51°11.808 2°33.287 3.174 2.798518 30.149922 2.353725
2005-03-08 08:38:07 51°11.804 2°33.288 3.1546 2.797887 30.145775 2.320016
2005-03-08 08:38:11 51°11.801 2°33.288 3.1626 2.79694 30.138715 2.286306
2005-03-08 08:38:17 51°11.798 2°33.288 3.1845 2.796624 30.13664 2.252597
2005-03-08 08:38:21 51°11.795 2°33.289 3.1634 2.796098 30.135415 2.218888
2005-03-08 08:38:27 51°11.792 2°33.289 3.1795 2.795993 30.13584 2.252597
2005-03-08 08:38:31 51°11.79 2°33.289 3.1308 2.795993 30.13584 2.252597
2005-03-08 08:38:37 51°11.787 2°33.29 3.1599 2.795466 30.131265 2.151469
2005-03-08 08:38:42 51°11.784 2°33.29 3.1497 2.795361 30.13169 2.151469
2005-03-08 08:38:47 51°11.782 2°33.29 3.1486 2.79494 30.129201 2.151469
2005-03-08 08:38:51 51°11.78 2°33.29 3.1574 2.795151 30.126678 2.117759
2005-03-08 08:38:57 51°11.777 2°33.29 3.1399 2.79494 30.128364 2.08405
2005-03-08 08:39:02 51°11.775 2°33.29 3.1649 2.79494 30.128364 2.08405
2005-03-08 08:39:07 51°11.773 2°33.29 3.1345 2.794625 30.133826 2.08405
2005-03-08 08:39:11 51°11.771 2°33.29 3.1293 2.794099 30.128412 2.117759
2005-03-08 08:39:18 51°11.769 2°33.29 3.1489 2.793888 30.127586 2.08405
2005-03-08 08:39:21 51°11.767 2°33.29 3.1355 2.793467 30.125097 2.050341
2005-03-08 08:39:27 51°11.765 2°33.29 3.1444 2.793152 30.126371 2.016631
2005-03-08 08:39:31 51°11.764 2°33.29 3.1432 2.793152 30.126371 2.016631
2005-03-08 08:39:37 51°11.761 2°33.29 3.1275 2.792941 30.123032 2.016631
2005-03-08 08:39:42 51°11.76 2°33.291 3.1313 2.792836 30.125133 1.982922
2005-03-08 08:39:47 51°11.758 2°33.291 3.1314 2.79252 30.125569 1.982922
2005-03-08 08:39:51 51°11.757 2°33.292 3.1302 2.79231 30.125581 2.050341
2005-03-08 08:39:57 51°11.754 2°33.292 3.1239 2.7921 30.124755 2.08405
2005-03-08 08:40:01 51°11.753 2°33.292 3.1429 2.7921 30.124755 2.08405
2005-03-08 08:40:07 51°11.751 2°33.292 3.1387 2.7921 30.122241 2.050341
2005-03-08 08:40:11 51°11.75 2°33.293 3.1278 2.7921 30.126432 1.915503
2005-03-08 08:40:17 51°11.748 2°33.293 3.1345 2.791889 30.123091 1.949212
2005-03-08 08:40:21 51°11.746 2°33.294 3.1218 2.791994 30.12518 1.949212
2005-03-08 08:40:27 51°11.744 2°33.294 3.1198 2.791994 30.131049 2.016631
2005-03-08 08:40:32 51°11.743 2°33.294 3.1161 2.791994 30.131049 2.016631
2005-03-08 08:40:37 51°11.741 2°33.294 3.1145 2.791679 30.127294 1.982922
2005-03-08 08:40:42 51°11.739 2°33.294 3.1102 2.791784 30.126869 1.982922
2005-03-08 08:40:47 51°11.738 2°33.294 3.1036 2.791679 30.128971 1.949212
2005-03-08 08:40:52 51°11.736 2°33.294 3.129 2.791994 30.128533 2.050341
2005-03-08 08:40:57 51°11.734 2°33.295 3.0913 2.791468 30.130661 2.016631
2005-03-08 08:41:01 51°11.733 2°33.294 3.1174 2.791468 30.130661 2.016631
2005-03-08 08:41:07 51°11.73 2°33.294 3.1087 2.791258 30.134029 1.982922
2005-03-08 08:41:12 51°11.728 2°33.294 3.1172 2.790942 30.131951 1.949212
2005-03-08 08:41:17 51°11.727 2°33.294 3.1114 2.791153 30.133616 1.915503
2005-03-08 08:41:21 51°11.725 2°33.293 3.1013 2.790942 30.131112 1.949212
2005-03-08 08:41:26 51°11.723 2°33.292 3.0979 2.790942 30.129434 1.982922
2005-03-08 08:41:31 51°11.72 2°33.292 3.1049 2.790942 30.129434 1.982922
2005-03-08 08:41:37 51°11.718 2°33.29 3.1117 2.790942 30.133629 1.949212
2005-03-08 08:41:41 51°11.715 2°33.288 3.0979 2.790837 30.134894 1.982922
2005-03-08 08:41:47 51°11.712 2°33.287 3.0945 2.790837 30.133216 1.915503
2005-03-08 08:41:51 51°11.709 2°33.285 3.1069 2.790627 30.13239 1.949212
2005-03-08 08:41:57 51°11.706 2°33.282 3.1047 2.790837 30.136572 1.915503
2005-03-08 08:42:01 51°11.703 2°33.28 3.098 2.790837 30.136572 1.915503
2005-03-08 08:42:06 51°11.7 2°33.277 3.0948 2.790416 30.13492 1.949212
2005-03-08 08:42:11 51°11.697 2°33.274 3.0947 2.790416 30.136599 1.881794
2005-03-08 08:42:17 51°11.692 2°33.27 3.0823 2.790311 30.136186 1.848084
2005-03-08 08:42:21 51°11.69 2°33.267 3.0873 2.790206 30.137452 1.915503
2005-03-08 08:42:27 51°11.686 2°33.263 3.0961 2.790206 30.139131 1.881794
2005-03-08 08:42:31 51°11.683 2°33.259 3.0932 2.790206 30.139131 1.881794
2005-03-08 08:42:37 51°11.679 2°33.255 3.0894 2.790206 30.136612 1.881794
2005-03-08 08:42:41 51°11.676 2°33.252 3.0887 2.790522 30.141209 1.915503
2005-03-08 08:42:47 51°11.673 2°33.247 3.0851 2.790311 30.142902 1.915503